CCA936 EDDF-ZSPD
Flight info
| Callsign | CCA936 |
|---|---|
| Flight time | 10h 10m |
| Altitude | 37000 |
| Route | TOBAK8F TOBAK N858 FEDZA Y172 MAG DCT GILAS DCT BOKSU DCT LAFAT/K0885F370 DCT INKUZ DCT BENIM/K0882F390 DCT RATIN N869 BAPUN P874 DIKIN M61 SUMOM P983 ABESA L158 LAGOP/K0896F410 L158 TR P982 DARNO/K0909S1250 A575 UDA Y345 POLHO W33 NUVPU W52 MUDAM/K0885S1220 G212 SOTMU W98 ELKUR W40 DOXAB/K0895S1250 W40 YQG/K0896S1220 W142 DALIM/K0898S1250 A593 DPX A470 DALNU W166 ZJ W167 SASAN SAS81A |
| Aircraft | A359/H-SDE2E3GHIJ1J3J4J5LM1ORWXY/LB1D1 |
Departure
| Time | 2026-05-05 04:18 |
|---|---|
| Airport | Frankfurt Main Airport (EDDF) |
Arrival
| Time | 2026-05-05 14:28 |
|---|---|
| Airport | Shanghai Pudong International Airport (ZSPD) |
| Time | Latitude | Longitude | Altitude | Speed | Heading |
|---|---|---|---|---|---|
| 2026-05-05 03:37 | 50.04763 | 8.57741 | 379 ft | 0 kts | 271° |
| 2026-05-05 04:05 | 50.04763 | 8.57752 | 378 ft | 2 kts | 266° |
| 2026-05-05 04:05 | 50.04764 | 8.57775 | 378 ft | 2 kts | 268° |
| 2026-05-05 04:05 | 50.04765 | 8.57798 | 378 ft | 2 kts | 267° |
| 2026-05-05 04:05 | 50.04766 | 8.57821 | 378 ft | 2 kts | 264° |
| 2026-05-05 04:06 | 50.04768 | 8.57844 | 379 ft | 2 kts | 263° |
| 2026-05-05 04:06 | 50.04769 | 8.57867 | 379 ft | 2 kts | 261° |
| 2026-05-05 04:06 | 50.04772 | 8.57890 | 380 ft | 2 kts | 259° |
| 2026-05-05 04:06 | 50.04775 | 8.57913 | 380 ft | 2 kts | 258° |
| 2026-05-05 04:07 | 50.04778 | 8.57935 | 381 ft | 2 kts | 256° |
| 2026-05-05 04:07 | 50.04782 | 8.57958 | 381 ft | 2 kts | 254° |
| 2026-05-05 04:07 | 50.04787 | 8.57980 | 382 ft | 2 kts | 252° |
| 2026-05-05 04:07 | 50.04791 | 8.58002 | 382 ft | 2 kts | 251° |
| 2026-05-05 04:08 | 50.04795 | 8.58018 | 382 ft | 0 kts | 250° |
| 2026-05-05 04:11 | 50.04794 | 8.58016 | 382 ft | 1 kts | 249° |
| 2026-05-05 04:12 | 50.04790 | 8.58004 | 382 ft | 3 kts | 239° |
| 2026-05-05 04:13 | 50.04751 | 8.57968 | 381 ft | 7 kts | 192° |
| 2026-05-05 04:13 | 50.04691 | 8.57979 | 380 ft | 8 kts | 163° |
| 2026-05-05 04:13 | 50.04629 | 8.58006 | 380 ft | 9 kts | 161° |
| 2026-05-05 04:13 | 50.04576 | 8.58058 | 379 ft | 9 kts | 123° |
| 2026-05-05 04:14 | 50.04574 | 8.58155 | 381 ft | 8 kts | 68° |
| 2026-05-05 04:14 | 50.04596 | 8.58243 | 382 ft | 9 kts | 69° |
| 2026-05-05 04:14 | 50.04619 | 8.58339 | 382 ft | 9 kts | 70° |
| 2026-05-05 04:14 | 50.04648 | 8.58458 | 378 ft | 8 kts | 69° |
| 2026-05-05 04:15 | 50.04633 | 8.58550 | 374 ft | 9 kts | 135° |
| 2026-05-05 04:15 | 50.04564 | 8.58618 | 370 ft | 12 kts | 159° |
| 2026-05-05 04:15 | 50.04506 | 8.58618 | 369 ft | 8 kts | 223° |
| 2026-05-05 04:15 | 50.04481 | 8.58560 | 371 ft | 4 kts | 246° |
| 2026-05-05 04:16 | 50.04474 | 8.58532 | 372 ft | 0 kts | 248° |
| 2026-05-05 04:16 | 50.04474 | 8.58530 | 373 ft | 0 kts | 248° |
| 2026-05-05 04:17 | 50.04422 | 8.58311 | 378 ft | 55 kts | 250° |
| 2026-05-05 04:17 | 50.04202 | 8.57395 | 369 ft | 125 kts | 250° |
| 2026-05-05 04:17 | 50.03819 | 8.55810 | 374 ft | 180 kts | 252° |
| 2026-05-05 04:17 | 50.03375 | 8.53935 | 907 ft | 190 kts | 251° |
| 2026-05-05 04:18 | 50.02939 | 8.52107 | 1848 ft | 181 kts | 252° |
| 2026-05-05 04:18 | 50.02692 | 8.50302 | 2574 ft | 171 kts | 273° |
| 2026-05-05 04:18 | 50.02800 | 8.48495 | 3093 ft | 170 kts | 278° |
| 2026-05-05 04:18 | 50.02958 | 8.46665 | 3585 ft | 172 kts | 278° |
| 2026-05-05 04:19 | 50.03126 | 8.44757 | 3908 ft | 186 kts | 278° |
| 2026-05-05 04:19 | 50.03359 | 8.42713 | 4213 ft | 201 kts | 291° |
| 2026-05-05 04:19 | 50.04239 | 8.40925 | 4530 ft | 218 kts | 322° |
| 2026-05-05 04:19 | 50.05488 | 8.39477 | 4943 ft | 233 kts | 323° |
| 2026-05-05 04:20 | 50.06841 | 8.37940 | 5361 ft | 249 kts | 323° |
| 2026-05-05 04:20 | 50.08263 | 8.36298 | 5783 ft | 265 kts | 323° |
| 2026-05-05 04:20 | 50.09775 | 8.34524 | 6280 ft | 278 kts | 322° |
| 2026-05-05 04:20 | 50.11465 | 8.33049 | 6915 ft | 286 kts | 345° |
| 2026-05-05 04:21 | 50.13406 | 8.32967 | 7708 ft | 286 kts | 12° |
| 2026-05-05 04:21 | 50.15309 | 8.33814 | 8398 ft | 290 kts | 17° |
| 2026-05-05 04:21 | 50.17249 | 8.34791 | 8993 ft | 298 kts | 17° |
| 2026-05-05 04:21 | 50.19229 | 8.35785 | 9653 ft | 303 kts | 17° |
| 2026-05-05 04:22 | 50.21245 | 8.36771 | 10328 ft | 307 kts | 16° |
| 2026-05-05 04:22 | 50.23310 | 8.37761 | 10915 ft | 314 kts | 16° |
| 2026-05-05 04:22 | 50.25440 | 8.38772 | 11259 ft | 330 kts | 16° |
| 2026-05-05 04:22 | 50.27666 | 8.39919 | 11571 ft | 346 kts | 22° |
| 2026-05-05 04:23 | 50.29841 | 8.41699 | 11879 ft | 362 kts | 33° |
| 2026-05-05 04:23 | 50.31836 | 8.44130 | 12298 ft | 372 kts | 41° |
| 2026-05-05 04:23 | 50.33800 | 8.46864 | 12900 ft | 377 kts | 42° |
| 2026-05-05 04:23 | 50.35726 | 8.49602 | 13548 ft | 380 kts | 42° |
| 2026-05-05 04:24 | 50.37693 | 8.52385 | 14159 ft | 384 kts | 41° |
| 2026-05-05 04:24 | 50.39672 | 8.55164 | 14734 ft | 388 kts | 41° |
| 2026-05-05 04:24 | 50.41702 | 8.58000 | 15297 ft | 391 kts | 41° |
| 2026-05-05 04:25 | 50.45804 | 8.63664 | 16432 ft | 399 kts | 40° |
| 2026-05-05 04:25 | 50.47912 | 8.66434 | 16971 ft | 402 kts | 40° |
| 2026-05-05 04:25 | 50.50082 | 8.69274 | 17531 ft | 405 kts | 40° |
| 2026-05-05 04:25 | 50.52238 | 8.72106 | 18059 ft | 408 kts | 40° |
| 2026-05-05 04:26 | 50.54412 | 8.74974 | 18575 ft | 412 kts | 41° |
| 2026-05-05 04:26 | 50.56453 | 8.78109 | 19067 ft | 415 kts | 49° |
| 2026-05-05 04:26 | 50.58219 | 8.81706 | 19578 ft | 418 kts | 58° |
| 2026-05-05 04:26 | 50.59692 | 8.85618 | 20065 ft | 421 kts | 62° |
| 2026-05-05 04:27 | 50.61088 | 8.89665 | 20550 ft | 425 kts | 63° |
| 2026-05-05 04:27 | 50.62478 | 8.93752 | 21014 ft | 428 kts | 63° |
| 2026-05-05 04:27 | 50.63899 | 8.97912 | 21469 ft | 432 kts | 62° |
| 2026-05-05 04:27 | 50.65330 | 9.02074 | 21931 ft | 435 kts | 62° |
| 2026-05-05 04:28 | 50.66781 | 9.06278 | 22392 ft | 438 kts | 62° |
| 2026-05-05 04:28 | 50.68230 | 9.10476 | 22841 ft | 442 kts | 62° |
| 2026-05-05 04:28 | 50.69691 | 9.14709 | 23280 ft | 445 kts | 62° |
| 2026-05-05 04:28 | 50.71182 | 9.19036 | 23709 ft | 448 kts | 62° |
| 2026-05-05 04:29 | 50.72598 | 9.23343 | 24121 ft | 451 kts | 64° |
| 2026-05-05 04:29 | 50.74010 | 9.27806 | 24526 ft | 455 kts | 64° |
| 2026-05-05 04:29 | 50.75400 | 9.32245 | 24919 ft | 458 kts | 64° |
| 2026-05-05 04:29 | 50.76812 | 9.36760 | 25301 ft | 461 kts | 64° |
| 2026-05-05 04:30 | 50.78241 | 9.41330 | 25681 ft | 464 kts | 64° |
| 2026-05-05 04:30 | 50.79670 | 9.45903 | 26049 ft | 467 kts | 64° |
| 2026-05-05 04:30 | 50.81106 | 9.50501 | 26394 ft | 469 kts | 64° |
| 2026-05-05 04:30 | 50.82529 | 9.55067 | 26740 ft | 472 kts | 64° |
| 2026-05-05 04:31 | 50.83981 | 9.59733 | 27073 ft | 475 kts | 64° |
| 2026-05-05 04:31 | 50.85438 | 9.64432 | 27382 ft | 478 kts | 64° |
| 2026-05-05 04:31 | 50.86899 | 9.69153 | 27673 ft | 480 kts | 65° |
| 2026-05-05 04:31 | 50.88363 | 9.73908 | 27971 ft | 483 kts | 64° |
| 2026-05-05 04:32 | 50.89835 | 9.78702 | 28260 ft | 485 kts | 65° |
| 2026-05-05 04:32 | 50.91300 | 9.83478 | 28547 ft | 488 kts | 65° |
| 2026-05-05 04:32 | 50.92788 | 9.88335 | 28817 ft | 490 kts | 64° |
| 2026-05-05 04:32 | 50.94268 | 9.93177 | 29075 ft | 493 kts | 65° |
| 2026-05-05 04:33 | 50.95757 | 9.98050 | 29332 ft | 495 kts | 65° |
| 2026-05-05 04:33 | 50.97248 | 10.02949 | 29590 ft | 497 kts | 65° |
| 2026-05-05 04:33 | 50.98756 | 10.07914 | 29866 ft | 499 kts | 64° |
| 2026-05-05 04:33 | 51.00243 | 10.12813 | 30149 ft | 500 kts | 64° |
| 2026-05-05 04:34 | 51.01742 | 10.17759 | 30560 ft | 498 kts | 64° |
| 2026-05-05 04:34 | 51.03239 | 10.22714 | 30833 ft | 500 kts | 64° |
| 2026-05-05 04:34 | 51.04737 | 10.27682 | 31049 ft | 502 kts | 64° |
| 2026-05-05 04:34 | 51.06446 | 10.32530 | 31249 ft | 503 kts | 53° |
| 2026-05-05 04:35 | 51.08782 | 10.36607 | 31570 ft | 499 kts | 37° |
| 2026-05-05 04:35 | 51.11534 | 10.39770 | 32013 ft | 493 kts | 31° |
| 2026-05-05 04:35 | 51.14385 | 10.42781 | 32368 ft | 492 kts | 31° |
| 2026-05-05 04:35 | 51.17256 | 10.45771 | 32608 ft | 493 kts | 30° |
| 2026-05-05 04:36 | 51.20108 | 10.48760 | 32866 ft | 493 kts | 31° |
| 2026-05-05 04:36 | 51.22956 | 10.51775 | 33137 ft | 493 kts | 31° |
| 2026-05-05 04:36 | 51.25798 | 10.54810 | 33414 ft | 493 kts | 31° |
| 2026-05-05 04:36 | 51.28646 | 10.57869 | 33693 ft | 492 kts | 31° |
| 2026-05-05 04:37 | 51.31465 | 10.60906 | 33969 ft | 492 kts | 31° |
| 2026-05-05 04:37 | 51.34272 | 10.63934 | 34233 ft | 491 kts | 31° |
| 2026-05-05 04:37 | 51.37112 | 10.67013 | 34478 ft | 491 kts | 33° |
| 2026-05-05 04:37 | 51.39848 | 10.70177 | 34693 ft | 492 kts | 34° |
| 2026-05-05 04:38 | 51.42604 | 10.73495 | 34936 ft | 492 kts | 35° |
| 2026-05-05 04:38 | 51.45304 | 10.76786 | 35100 ft | 492 kts | 35° |
| 2026-05-05 04:38 | 51.48010 | 10.80096 | 35241 ft | 492 kts | 36° |
| 2026-05-05 04:38 | 51.50656 | 10.83604 | 35359 ft | 494 kts | 40° |
| 2026-05-05 04:39 | 51.53148 | 10.87319 | 35490 ft | 496 kts | 43° |
| 2026-05-05 04:39 | 51.55537 | 10.91348 | 35628 ft | 497 kts | 47° |
| 2026-05-05 04:39 | 51.57756 | 10.95540 | 35768 ft | 497 kts | 49° |
| 2026-05-05 04:39 | 51.59926 | 10.99835 | 35907 ft | 497 kts | 50° |
| 2026-05-05 04:40 | 51.62102 | 11.04188 | 36035 ft | 498 kts | 50° |
| 2026-05-05 04:40 | 51.64258 | 11.08507 | 36145 ft | 498 kts | 50° |
| 2026-05-05 04:40 | 51.66409 | 11.12806 | 36255 ft | 499 kts | 50° |
| 2026-05-05 04:40 | 51.68583 | 11.17146 | 36371 ft | 499 kts | 49° |
| 2026-05-05 04:41 | 51.70768 | 11.21504 | 36483 ft | 499 kts | 49° |
| 2026-05-05 04:41 | 51.72918 | 11.25797 | 36604 ft | 499 kts | 49° |
| 2026-05-05 04:41 | 51.75093 | 11.30148 | 36740 ft | 499 kts | 49° |
| 2026-05-05 04:41 | 51.77262 | 11.34494 | 36845 ft | 499 kts | 49° |
| 2026-05-05 04:42 | 51.79431 | 11.38843 | 36920 ft | 500 kts | 49° |
| 2026-05-05 04:42 | 51.83770 | 11.47566 | 36920 ft | 500 kts | 50° |
| 2026-05-05 04:43 | 51.88104 | 11.56316 | 36922 ft | 500 kts | 49° |
| 2026-05-05 04:43 | 51.92425 | 11.65074 | 36926 ft | 500 kts | 50° |
| 2026-05-05 04:44 | 51.96640 | 11.74062 | 36922 ft | 501 kts | 55° |
| 2026-05-05 04:44 | 52.00216 | 11.83701 | 36922 ft | 502 kts | 62° |
| 2026-05-05 04:45 | 52.03083 | 11.93951 | 36926 ft | 502 kts | 68° |
| 2026-05-05 04:45 | 52.05643 | 12.04462 | 36929 ft | 503 kts | 68° |
| 2026-05-05 04:46 | 52.08186 | 12.14967 | 36924 ft | 503 kts | 68° |
| 2026-05-05 04:46 | 52.10762 | 12.25558 | 36921 ft | 503 kts | 68° |
| 2026-05-05 04:47 | 52.13344 | 12.36087 | 36926 ft | 504 kts | 68° |
| 2026-05-05 04:47 | 52.15908 | 12.46639 | 36924 ft | 504 kts | 68° |
| 2026-05-05 04:48 | 52.18461 | 12.57251 | 36928 ft | 504 kts | 68° |
| 2026-05-05 04:48 | 52.20977 | 12.67780 | 36923 ft | 504 kts | 69° |
| 2026-05-05 04:49 | 52.23490 | 12.78377 | 36927 ft | 503 kts | 69° |
| 2026-05-05 04:49 | 52.25998 | 12.88999 | 36921 ft | 503 kts | 69° |
| 2026-05-05 04:50 | 52.28503 | 12.99640 | 36923 ft | 504 kts | 69° |
| 2026-05-05 04:50 | 52.30998 | 13.10288 | 36918 ft | 504 kts | 68° |
| 2026-05-05 04:51 | 52.33487 | 13.20963 | 36932 ft | 505 kts | 69° |
| 2026-05-05 04:51 | 52.35970 | 13.31668 | 36918 ft | 506 kts | 68° |
| 2026-05-05 04:52 | 52.38434 | 13.42347 | 36936 ft | 506 kts | 68° |
| 2026-05-05 04:52 | 52.40906 | 13.53107 | 36918 ft | 506 kts | 68° |
| 2026-05-05 04:53 | 52.43361 | 13.63855 | 36923 ft | 506 kts | 68° |
| 2026-05-05 04:53 | 52.45804 | 13.74618 | 36930 ft | 506 kts | 69° |
| 2026-05-05 04:54 | 52.48222 | 13.85334 | 36923 ft | 505 kts | 69° |
| 2026-05-05 04:54 | 52.50637 | 13.96071 | 36920 ft | 504 kts | 69° |
| 2026-05-05 04:55 | 52.53046 | 14.06837 | 36920 ft | 504 kts | 69° |
| 2026-05-05 04:55 | 52.55452 | 14.17638 | 36924 ft | 504 kts | 69° |
| 2026-05-05 04:56 | 52.57853 | 14.28465 | 36920 ft | 505 kts | 69° |
| 2026-05-05 04:56 | 52.60221 | 14.39203 | 36921 ft | 504 kts | 69° |
| 2026-05-05 04:57 | 52.62601 | 14.50064 | 36921 ft | 504 kts | 69° |
| 2026-05-05 04:57 | 52.65065 | 14.60791 | 36921 ft | 504 kts | 67° |
| 2026-05-05 04:58 | 52.67664 | 14.71534 | 36920 ft | 505 kts | 68° |
| 2026-05-05 04:58 | 52.70224 | 14.82224 | 36923 ft | 505 kts | 68° |
| 2026-05-05 04:59 | 52.72763 | 14.92914 | 36927 ft | 505 kts | 68° |
| 2026-05-05 04:59 | 52.75312 | 15.03713 | 36922 ft | 505 kts | 68° |
| 2026-05-05 05:00 | 52.77837 | 15.14463 | 36916 ft | 506 kts | 68° |
| 2026-05-05 05:00 | 52.80355 | 15.25239 | 36916 ft | 506 kts | 68° |
| 2026-05-05 05:01 | 52.82877 | 15.36094 | 36917 ft | 506 kts | 68° |
| 2026-05-05 05:01 | 52.85372 | 15.46881 | 36917 ft | 506 kts | 68° |
| 2026-05-05 05:02 | 52.87871 | 15.57748 | 36917 ft | 506 kts | 68° |
| 2026-05-05 05:02 | 52.90361 | 15.68625 | 36917 ft | 506 kts | 68° |
| 2026-05-05 05:03 | 52.92827 | 15.79488 | 36919 ft | 506 kts | 68° |
| 2026-05-05 05:03 | 52.95285 | 15.90352 | 36920 ft | 506 kts | 69° |
| 2026-05-05 05:04 | 52.97741 | 16.01251 | 36920 ft | 506 kts | 69° |
| 2026-05-05 05:04 | 53.00174 | 16.12111 | 36923 ft | 507 kts | 68° |
| 2026-05-05 05:05 | 53.02622 | 16.23078 | 36920 ft | 507 kts | 69° |
| 2026-05-05 05:05 | 53.05058 | 16.34061 | 36918 ft | 507 kts | 69° |
| 2026-05-05 05:06 | 53.07477 | 16.45022 | 36925 ft | 508 kts | 69° |
| 2026-05-05 05:06 | 53.09877 | 16.55957 | 36921 ft | 507 kts | 69° |
| 2026-05-05 05:07 | 53.12308 | 16.66971 | 36921 ft | 507 kts | 69° |
| 2026-05-05 05:07 | 53.14706 | 16.77929 | 36930 ft | 507 kts | 69° |
| 2026-05-05 05:08 | 53.17084 | 16.88914 | 36931 ft | 507 kts | 69° |
| 2026-05-05 05:08 | 53.19452 | 16.99936 | 36936 ft | 507 kts | 69° |
| 2026-05-05 05:09 | 53.21814 | 17.10988 | 36942 ft | 507 kts | 69° |
| 2026-05-05 05:09 | 53.24160 | 17.22016 | 36938 ft | 507 kts | 69° |
| 2026-05-05 05:10 | 53.26508 | 17.33125 | 36941 ft | 506 kts | 70° |
| 2026-05-05 05:10 | 53.28823 | 17.44136 | 36932 ft | 507 kts | 70° |
| 2026-05-05 05:11 | 53.31137 | 17.55204 | 36926 ft | 507 kts | 70° |
| 2026-05-05 05:11 | 53.33451 | 17.66331 | 36934 ft | 507 kts | 70° |
| 2026-05-05 05:12 | 53.35727 | 17.77368 | 36927 ft | 507 kts | 70° |
| 2026-05-05 05:12 | 53.38021 | 17.88546 | 36926 ft | 507 kts | 70° |
| 2026-05-05 05:13 | 53.40280 | 17.99601 | 36929 ft | 507 kts | 70° |
| 2026-05-05 05:13 | 53.42555 | 18.10792 | 36918 ft | 506 kts | 70° |
| 2026-05-05 05:14 | 53.44797 | 18.21875 | 36926 ft | 506 kts | 70° |
| 2026-05-05 05:14 | 53.47037 | 18.33014 | 36919 ft | 506 kts | 70° |
| 2026-05-05 05:15 | 53.49273 | 18.44199 | 36917 ft | 506 kts | 70° |
| 2026-05-05 05:15 | 53.51490 | 18.55350 | 36916 ft | 506 kts | 70° |
| 2026-05-05 05:16 | 53.53695 | 18.66505 | 36909 ft | 506 kts | 71° |
| 2026-05-05 05:16 | 53.55888 | 18.77685 | 36906 ft | 505 kts | 71° |
| 2026-05-05 05:17 | 53.58062 | 18.88846 | 36901 ft | 505 kts | 71° |
| 2026-05-05 05:17 | 53.60235 | 19.00046 | 36898 ft | 505 kts | 71° |
| 2026-05-05 05:18 | 53.62397 | 19.11242 | 36905 ft | 505 kts | 71° |
| 2026-05-05 05:18 | 53.64559 | 19.22496 | 36902 ft | 506 kts | 71° |
| 2026-05-05 05:19 | 53.66695 | 19.33685 | 36903 ft | 506 kts | 71° |
| 2026-05-05 05:19 | 53.68827 | 19.44918 | 36903 ft | 506 kts | 71° |
| 2026-05-05 05:20 | 53.70949 | 19.56181 | 36909 ft | 506 kts | 71° |
| 2026-05-05 05:20 | 53.73067 | 19.67473 | 36906 ft | 506 kts | 72° |
| 2026-05-05 05:21 | 53.75177 | 19.78829 | 36903 ft | 506 kts | 72° |
| 2026-05-05 05:21 | 53.77258 | 19.90084 | 36902 ft | 507 kts | 72° |
| 2026-05-05 05:22 | 53.79347 | 20.01438 | 36926 ft | 508 kts | 72° |
| 2026-05-05 05:22 | 53.81422 | 20.12786 | 36925 ft | 508 kts | 72° |
| 2026-05-05 05:23 | 53.83495 | 20.24188 | 36921 ft | 508 kts | 72° |
| 2026-05-05 05:23 | 53.85547 | 20.35546 | 36912 ft | 507 kts | 72° |
| 2026-05-05 05:24 | 53.87600 | 20.46968 | 36904 ft | 507 kts | 72° |
| 2026-05-05 05:24 | 53.89621 | 20.58294 | 36906 ft | 507 kts | 72° |
| 2026-05-05 05:25 | 53.91653 | 20.69751 | 36908 ft | 507 kts | 73° |
| 2026-05-05 05:25 | 53.93658 | 20.81162 | 36906 ft | 507 kts | 73° |
| 2026-05-05 05:26 | 53.95654 | 20.92584 | 36902 ft | 507 kts | 73° |
| 2026-05-05 05:26 | 53.97638 | 21.03990 | 36910 ft | 508 kts | 73° |
| 2026-05-05 05:27 | 53.99618 | 21.15447 | 36921 ft | 507 kts | 73° |
| 2026-05-05 05:27 | 54.02567 | 21.32637 | 36923 ft | 507 kts | 73° |
| 2026-05-05 05:28 | 54.04518 | 21.44103 | 36917 ft | 507 kts | 73° |
| 2026-05-05 05:28 | 54.06465 | 21.55628 | 36928 ft | 505 kts | 73° |
| 2026-05-05 05:29 | 54.08378 | 21.67013 | 36921 ft | 504 kts | 74° |
| 2026-05-05 05:29 | 54.10286 | 21.78485 | 36919 ft | 504 kts | 74° |
| 2026-05-05 05:30 | 54.12214 | 21.89947 | 36918 ft | 502 kts | 73° |
| 2026-05-05 05:30 | 54.14101 | 22.01297 | 36925 ft | 503 kts | 74° |
| 2026-05-05 05:31 | 54.15984 | 22.12800 | 36927 ft | 503 kts | 74° |
| 2026-05-05 05:31 | 54.17839 | 22.24218 | 36916 ft | 503 kts | 74° |
| 2026-05-05 05:32 | 54.19693 | 22.35705 | 36915 ft | 503 kts | 74° |
| 2026-05-05 05:32 | 54.21521 | 22.47107 | 36917 ft | 503 kts | 75° |
| 2026-05-05 05:33 | 54.23351 | 22.58615 | 36918 ft | 502 kts | 75° |
| 2026-05-05 05:33 | 54.25158 | 22.70067 | 36888 ft | 503 kts | 76° |
| 2026-05-05 05:34 | 54.26961 | 22.81582 | 36908 ft | 502 kts | 76° |
| 2026-05-05 05:34 | 54.28748 | 22.93056 | 36891 ft | 501 kts | 76° |
| 2026-05-05 05:35 | 54.30548 | 23.04550 | 36887 ft | 502 kts | 74° |
| 2026-05-05 05:35 | 54.32731 | 23.15813 | 36891 ft | 501 kts | 71° |
| 2026-05-05 05:36 | 54.35047 | 23.27038 | 36890 ft | 502 kts | 70° |
| 2026-05-05 05:36 | 54.37355 | 23.38309 | 36886 ft | 503 kts | 70° |
| 2026-05-05 05:37 | 54.39643 | 23.49596 | 36892 ft | 501 kts | 70° |
| 2026-05-05 05:37 | 54.41905 | 23.60820 | 36888 ft | 503 kts | 70° |
| 2026-05-05 05:38 | 54.44170 | 23.72140 | 36900 ft | 503 kts | 71° |
| 2026-05-05 05:38 | 54.46413 | 23.83452 | 36893 ft | 503 kts | 71° |
| 2026-05-05 05:39 | 54.48654 | 23.94785 | 36898 ft | 502 kts | 71° |
| 2026-05-05 05:39 | 54.50886 | 24.06144 | 36896 ft | 502 kts | 71° |
| 2026-05-05 05:40 | 54.53097 | 24.17450 | 36898 ft | 503 kts | 71° |
| 2026-05-05 05:40 | 54.55308 | 24.28822 | 36904 ft | 503 kts | 71° |
| 2026-05-05 05:41 | 54.57510 | 24.40218 | 36903 ft | 503 kts | 71° |
| 2026-05-05 05:41 | 54.59692 | 24.51580 | 36898 ft | 503 kts | 71° |
| 2026-05-05 05:42 | 54.61863 | 24.62955 | 36898 ft | 503 kts | 71° |
| 2026-05-05 05:42 | 54.64040 | 24.74438 | 36897 ft | 503 kts | 72° |
| 2026-05-05 05:43 | 54.66184 | 24.85826 | 36884 ft | 504 kts | 72° |
| 2026-05-05 05:43 | 54.68336 | 24.97312 | 36872 ft | 503 kts | 72° |
| 2026-05-05 05:44 | 54.70478 | 25.08803 | 36881 ft | 505 kts | 72° |
| 2026-05-05 05:44 | 54.72604 | 25.20284 | 36884 ft | 503 kts | 72° |
| 2026-05-05 05:45 | 54.74707 | 25.31701 | 36882 ft | 503 kts | 72° |
| 2026-05-05 05:45 | 54.76810 | 25.43185 | 36881 ft | 503 kts | 72° |
| 2026-05-05 05:46 | 54.78908 | 25.54711 | 36879 ft | 502 kts | 72° |
| 2026-05-05 05:46 | 54.80986 | 25.66195 | 36876 ft | 502 kts | 73° |
| 2026-05-05 05:47 | 54.83029 | 25.77747 | 36865 ft | 503 kts | 75° |
| 2026-05-05 05:47 | 54.84717 | 25.89422 | 36860 ft | 502 kts | 77° |
| 2026-05-05 05:48 | 54.86332 | 26.01163 | 36861 ft | 502 kts | 77° |
| 2026-05-05 05:48 | 54.87952 | 26.12903 | 36868 ft | 502 kts | 77° |
| 2026-05-05 05:49 | 54.89564 | 26.24655 | 36871 ft | 501 kts | 77° |
| 2026-05-05 05:49 | 54.91145 | 26.36408 | 36869 ft | 500 kts | 77° |
| 2026-05-05 05:50 | 54.92706 | 26.48082 | 36870 ft | 501 kts | 77° |
| 2026-05-05 05:50 | 54.94268 | 26.59848 | 36871 ft | 500 kts | 77° |
| 2026-05-05 05:51 | 54.95815 | 26.71567 | 36873 ft | 500 kts | 78° |
| 2026-05-05 05:51 | 54.97351 | 26.83339 | 36868 ft | 499 kts | 78° |
| 2026-05-05 05:52 | 54.98864 | 26.95000 | 36865 ft | 498 kts | 78° |
| 2026-05-05 05:52 | 55.00377 | 27.06748 | 36862 ft | 499 kts | 78° |
| 2026-05-05 05:53 | 55.01879 | 27.18505 | 36861 ft | 498 kts | 78° |
| 2026-05-05 05:53 | 55.03360 | 27.30195 | 36850 ft | 498 kts | 78° |
| 2026-05-05 05:54 | 55.04842 | 27.41981 | 36847 ft | 499 kts | 78° |
| 2026-05-05 05:54 | 55.06304 | 27.53711 | 36847 ft | 498 kts | 78° |
| 2026-05-05 05:55 | 55.07762 | 27.65511 | 36848 ft | 499 kts | 78° |
| 2026-05-05 05:55 | 55.09202 | 27.77268 | 36852 ft | 498 kts | 79° |
| 2026-05-05 05:56 | 55.10644 | 27.89083 | 36852 ft | 499 kts | 78° |
| 2026-05-05 05:56 | 55.12095 | 28.00871 | 36852 ft | 499 kts | 78° |
| 2026-05-05 05:57 | 55.13506 | 28.12643 | 36853 ft | 498 kts | 79° |
| 2026-05-05 05:57 | 55.14759 | 28.24469 | 36856 ft | 498 kts | 83° |
| 2026-05-05 05:58 | 55.15531 | 28.36506 | 36855 ft | 498 kts | 85° |
| 2026-05-05 05:58 | 55.16228 | 28.48437 | 36843 ft | 498 kts | 85° |
| 2026-05-05 05:59 | 55.16925 | 28.60420 | 36839 ft | 498 kts | 85° |
| 2026-05-05 05:59 | 55.17619 | 28.72433 | 36843 ft | 496 kts | 86° |
| 2026-05-05 06:00 | 55.18297 | 28.84405 | 36841 ft | 496 kts | 86° |
| 2026-05-05 06:00 | 55.18961 | 28.96292 | 36838 ft | 496 kts | 86° |
| 2026-05-05 06:01 | 55.19616 | 29.08249 | 36834 ft | 496 kts | 85° |
| 2026-05-05 06:01 | 55.20261 | 29.20225 | 36835 ft | 496 kts | 85° |
| 2026-05-05 06:02 | 55.20894 | 29.32165 | 36835 ft | 495 kts | 85° |
| 2026-05-05 06:02 | 55.21516 | 29.44153 | 36831 ft | 495 kts | 85° |
| 2026-05-05 06:03 | 55.22123 | 29.56052 | 36832 ft | 495 kts | 85° |
| 2026-05-05 06:03 | 55.22723 | 29.68059 | 36825 ft | 494 kts | 86° |
| 2026-05-05 06:04 | 55.23306 | 29.79996 | 36830 ft | 494 kts | 86° |
| 2026-05-05 06:04 | 55.23877 | 29.91931 | 36835 ft | 494 kts | 86° |
| 2026-05-05 06:05 | 55.24436 | 30.03824 | 36833 ft | 494 kts | 86° |
| 2026-05-05 06:05 | 55.24986 | 30.15772 | 36832 ft | 494 kts | 86° |
| 2026-05-05 06:06 | 55.25522 | 30.27696 | 36834 ft | 494 kts | 86° |
| 2026-05-05 06:06 | 55.26051 | 30.39711 | 36837 ft | 494 kts | 86° |
| 2026-05-05 06:07 | 55.26565 | 30.51624 | 36843 ft | 493 kts | 86° |
| 2026-05-05 06:07 | 55.27069 | 30.63608 | 36848 ft | 493 kts | 86° |
| 2026-05-05 06:08 | 55.27736 | 30.75516 | 36843 ft | 494 kts | 82° |
| 2026-05-05 06:08 | 55.29189 | 30.87204 | 36844 ft | 494 kts | 74° |
| 2026-05-05 06:09 | 55.31491 | 30.98449 | 36843 ft | 494 kts | 66° |
| 2026-05-05 06:09 | 55.34488 | 31.09250 | 36843 ft | 494 kts | 63° |
| 2026-05-05 06:10 | 55.37591 | 31.19972 | 36837 ft | 494 kts | 63° |
| 2026-05-05 06:10 | 55.40670 | 31.30721 | 36831 ft | 494 kts | 63° |
| 2026-05-05 06:11 | 55.43712 | 31.41445 | 36832 ft | 494 kts | 63° |
| 2026-05-05 06:11 | 55.46759 | 31.52255 | 36824 ft | 495 kts | 63° |
| 2026-05-05 06:12 | 55.49788 | 31.63050 | 36827 ft | 494 kts | 63° |
| 2026-05-05 06:12 | 55.52807 | 31.73881 | 36828 ft | 494 kts | 64° |
| 2026-05-05 06:13 | 55.55814 | 31.84728 | 36829 ft | 494 kts | 64° |
| 2026-05-05 06:13 | 55.58827 | 31.95633 | 36827 ft | 494 kts | 64° |
| 2026-05-05 06:14 | 55.61824 | 32.06522 | 36822 ft | 494 kts | 63° |
| 2026-05-05 06:14 | 55.64807 | 32.17410 | 36819 ft | 494 kts | 63° |
| 2026-05-05 06:15 | 55.67783 | 32.28323 | 36822 ft | 494 kts | 63° |
| 2026-05-05 06:15 | 55.70746 | 32.39236 | 36823 ft | 495 kts | 63° |
| 2026-05-05 06:16 | 55.73703 | 32.50179 | 36817 ft | 495 kts | 63° |
| 2026-05-05 06:16 | 55.76671 | 32.61218 | 36820 ft | 496 kts | 63° |
| 2026-05-05 06:17 | 55.79608 | 32.72207 | 36819 ft | 496 kts | 64° |
| 2026-05-05 06:17 | 55.82541 | 32.83230 | 36819 ft | 496 kts | 64° |
| 2026-05-05 06:18 | 55.85483 | 32.94211 | 36825 ft | 496 kts | 62° |
| 2026-05-05 06:18 | 55.88726 | 33.04992 | 36822 ft | 496 kts | 60° |
| 2026-05-05 06:19 | 55.92038 | 33.15774 | 36829 ft | 495 kts | 60° |
| 2026-05-05 06:19 | 55.95315 | 33.26506 | 36829 ft | 495 kts | 60° |
| 2026-05-05 06:20 | 55.98578 | 33.37259 | 36830 ft | 495 kts | 60° |
| 2026-05-05 06:20 | 56.01842 | 33.48067 | 36835 ft | 495 kts | 60° |
| 2026-05-05 06:21 | 56.05065 | 33.58794 | 36830 ft | 494 kts | 60° |
| 2026-05-05 06:21 | 56.08304 | 33.69628 | 36833 ft | 494 kts | 61° |
| 2026-05-05 06:22 | 56.11512 | 33.80409 | 36835 ft | 494 kts | 61° |
| 2026-05-05 06:22 | 56.14751 | 33.91254 | 36830 ft | 494 kts | 61° |
| 2026-05-05 06:23 | 56.17970 | 34.02134 | 36828 ft | 495 kts | 61° |
| 2026-05-05 06:23 | 56.21162 | 34.13001 | 36836 ft | 494 kts | 61° |
| 2026-05-05 06:24 | 56.24345 | 34.23891 | 36829 ft | 494 kts | 61° |
| 2026-05-05 06:24 | 56.27501 | 34.34735 | 36826 ft | 494 kts | 61° |
| 2026-05-05 06:25 | 56.30658 | 34.45645 | 36830 ft | 493 kts | 61° |
| 2026-05-05 06:25 | 56.33807 | 34.56570 | 36832 ft | 494 kts | 61° |
| 2026-05-05 06:26 | 56.36954 | 34.67517 | 36821 ft | 493 kts | 62° |
| 2026-05-05 06:26 | 56.40087 | 34.78495 | 36816 ft | 493 kts | 62° |
| 2026-05-05 06:27 | 56.44753 | 34.94918 | 36811 ft | 494 kts | 62° |
| 2026-05-05 06:28 | 56.47866 | 35.05978 | 36811 ft | 494 kts | 62° |
| 2026-05-05 06:28 | 56.50954 | 35.17032 | 36808 ft | 494 kts | 62° |
| 2026-05-05 06:29 | 56.54036 | 35.28101 | 36803 ft | 494 kts | 62° |
| 2026-05-05 06:29 | 56.57093 | 35.39136 | 36807 ft | 494 kts | 62° |
| 2026-05-05 06:30 | 56.60161 | 35.50209 | 36811 ft | 493 kts | 62° |
| 2026-05-05 06:30 | 56.63238 | 35.61328 | 36809 ft | 494 kts | 62° |
| 2026-05-05 06:31 | 56.66270 | 35.72461 | 36809 ft | 493 kts | 63° |
| 2026-05-05 06:31 | 56.69278 | 35.83570 | 36815 ft | 494 kts | 63° |
| 2026-05-05 06:32 | 56.72308 | 35.94712 | 36817 ft | 494 kts | 62° |
| 2026-05-05 06:32 | 56.75336 | 36.05906 | 36818 ft | 494 kts | 63° |
| 2026-05-05 06:33 | 56.78336 | 36.17062 | 36815 ft | 493 kts | 63° |
| 2026-05-05 06:33 | 56.81336 | 36.28268 | 36812 ft | 494 kts | 63° |
| 2026-05-05 06:34 | 56.84331 | 36.39507 | 36816 ft | 493 kts | 62° |
| 2026-05-05 06:34 | 56.87304 | 36.50696 | 36808 ft | 494 kts | 62° |
| 2026-05-05 06:35 | 56.90277 | 36.61964 | 36803 ft | 493 kts | 63° |
| 2026-05-05 06:35 | 56.93211 | 36.73180 | 36803 ft | 493 kts | 63° |
| 2026-05-05 06:36 | 56.96161 | 36.84528 | 36800 ft | 493 kts | 63° |
| 2026-05-05 06:36 | 56.99083 | 36.95823 | 36798 ft | 493 kts | 63° |
| 2026-05-05 06:37 | 57.01998 | 37.07133 | 36802 ft | 493 kts | 63° |
| 2026-05-05 06:37 | 57.04895 | 37.18405 | 36796 ft | 493 kts | 63° |
| 2026-05-05 06:38 | 57.07816 | 37.29814 | 36800 ft | 493 kts | 63° |
| 2026-05-05 06:38 | 57.10717 | 37.41188 | 36798 ft | 493 kts | 63° |
| 2026-05-05 06:39 | 57.13617 | 37.52522 | 36791 ft | 494 kts | 63° |
| 2026-05-05 06:39 | 57.16481 | 37.63998 | 36787 ft | 494 kts | 65° |
| 2026-05-05 06:40 | 57.18984 | 37.75759 | 36792 ft | 494 kts | 68° |
| 2026-05-05 06:40 | 57.21389 | 37.87544 | 36792 ft | 494 kts | 68° |
| 2026-05-05 06:41 | 57.23800 | 37.99366 | 36797 ft | 494 kts | 68° |
| 2026-05-05 06:41 | 57.26211 | 38.11204 | 36801 ft | 494 kts | 68° |
| 2026-05-05 06:42 | 57.28608 | 38.23030 | 36805 ft | 495 kts | 68° |
| 2026-05-05 06:42 | 57.31000 | 38.34913 | 36802 ft | 495 kts | 68° |
| 2026-05-05 06:43 | 57.33368 | 38.46807 | 36802 ft | 495 kts | 68° |
| 2026-05-05 06:43 | 57.35726 | 38.58734 | 36799 ft | 495 kts | 68° |
| 2026-05-05 06:44 | 57.38076 | 38.70676 | 36799 ft | 495 kts | 69° |
| 2026-05-05 06:44 | 57.40396 | 38.82564 | 36790 ft | 496 kts | 69° |
| 2026-05-05 06:45 | 57.42730 | 38.94572 | 36788 ft | 497 kts | 69° |
| 2026-05-05 06:45 | 57.45062 | 39.06630 | 36792 ft | 496 kts | 69° |
| 2026-05-05 06:46 | 57.47371 | 39.18640 | 36788 ft | 496 kts | 69° |
| 2026-05-05 06:46 | 57.49656 | 39.30616 | 36789 ft | 495 kts | 69° |
| 2026-05-05 06:47 | 57.51936 | 39.42637 | 36794 ft | 495 kts | 69° |
| 2026-05-05 06:47 | 57.54204 | 39.54648 | 36798 ft | 494 kts | 68° |
| 2026-05-05 06:48 | 57.56470 | 39.66715 | 36795 ft | 493 kts | 69° |
| 2026-05-05 06:48 | 57.58709 | 39.78736 | 36798 ft | 494 kts | 69° |
| 2026-05-05 06:49 | 57.60927 | 39.90710 | 36804 ft | 493 kts | 69° |
| 2026-05-05 06:49 | 57.63146 | 40.02768 | 36803 ft | 492 kts | 69° |
| 2026-05-05 06:50 | 57.65345 | 40.14817 | 36803 ft | 491 kts | 69° |
| 2026-05-05 06:50 | 57.67527 | 40.26837 | 36801 ft | 492 kts | 69° |
| 2026-05-05 06:51 | 57.69708 | 40.38898 | 36796 ft | 492 kts | 69° |
| 2026-05-05 06:51 | 57.71874 | 40.50969 | 36799 ft | 492 kts | 69° |
| 2026-05-05 06:52 | 57.74023 | 40.63007 | 36798 ft | 491 kts | 69° |
| 2026-05-05 06:52 | 57.76161 | 40.75076 | 36794 ft | 491 kts | 70° |
| 2026-05-05 06:53 | 57.78295 | 40.87220 | 36797 ft | 492 kts | 70° |
| 2026-05-05 06:53 | 57.80408 | 40.99304 | 36797 ft | 492 kts | 70° |
| 2026-05-05 06:54 | 57.82520 | 41.11442 | 36808 ft | 492 kts | 70° |
| 2026-05-05 06:54 | 57.84620 | 41.23589 | 36816 ft | 492 kts | 70° |
| 2026-05-05 06:55 | 57.86706 | 41.35733 | 36820 ft | 491 kts | 70° |
| 2026-05-05 06:55 | 57.88779 | 41.47880 | 36827 ft | 491 kts | 70° |
| 2026-05-05 06:56 | 57.90847 | 41.60096 | 36820 ft | 490 kts | 70° |
| 2026-05-05 06:56 | 57.92898 | 41.72243 | 36828 ft | 489 kts | 71° |
| 2026-05-05 06:57 | 57.94938 | 41.84375 | 36820 ft | 489 kts | 70° |
| 2026-05-05 06:57 | 57.96977 | 41.96553 | 36822 ft | 490 kts | 70° |
| 2026-05-05 06:58 | 57.99011 | 42.08761 | 36811 ft | 490 kts | 70° |
| 2026-05-05 06:58 | 58.01030 | 42.20970 | 36807 ft | 491 kts | 70° |
| 2026-05-05 06:59 | 58.03030 | 42.33147 | 36806 ft | 490 kts | 70° |
| 2026-05-05 06:59 | 58.05034 | 42.45434 | 36797 ft | 490 kts | 70° |
| 2026-05-05 07:00 | 58.07020 | 42.57692 | 36808 ft | 490 kts | 70° |
| 2026-05-05 07:00 | 58.08988 | 42.69920 | 36803 ft | 491 kts | 71° |
| 2026-05-05 07:01 | 58.10959 | 42.82241 | 36802 ft | 491 kts | 71° |
| 2026-05-05 07:01 | 58.12928 | 42.94486 | 36800 ft | 491 kts | 71° |
| 2026-05-05 07:02 | 58.14885 | 43.06831 | 36807 ft | 491 kts | 71° |
| 2026-05-05 07:02 | 58.16818 | 43.19178 | 36807 ft | 491 kts | 71° |
| 2026-05-05 07:02 | 58.17771 | 43.25311 | 36922 ft | 489 kts | 71° |
| 2026-05-05 07:03 | 58.18722 | 43.31443 | 37186 ft | 487 kts | 71° |
| 2026-05-05 07:03 | 58.19670 | 43.37582 | 37428 ft | 485 kts | 71° |
| 2026-05-05 07:03 | 58.20608 | 43.43676 | 37666 ft | 483 kts | 71° |
| 2026-05-05 07:03 | 58.21532 | 43.49703 | 37916 ft | 480 kts | 71° |
| 2026-05-05 07:04 | 58.22458 | 43.55774 | 38163 ft | 478 kts | 71° |
| 2026-05-05 07:04 | 58.23373 | 43.61788 | 38398 ft | 475 kts | 71° |
| 2026-05-05 07:04 | 58.24273 | 43.67731 | 38649 ft | 472 kts | 72° |
| 2026-05-05 07:04 | 58.25177 | 43.73734 | 38783 ft | 472 kts | 72° |
| 2026-05-05 07:05 | 58.26067 | 43.79660 | 38788 ft | 475 kts | 72° |
| 2026-05-05 07:05 | 58.27881 | 43.91786 | 38795 ft | 479 kts | 72° |
| 2026-05-05 07:06 | 58.29688 | 44.03962 | 38795 ft | 484 kts | 72° |
| 2026-05-05 07:06 | 58.31502 | 44.16266 | 38811 ft | 486 kts | 71° |
| 2026-05-05 07:07 | 58.33299 | 44.28543 | 38808 ft | 487 kts | 72° |
| 2026-05-05 07:07 | 58.35100 | 44.40942 | 38813 ft | 487 kts | 71° |
| 2026-05-05 07:08 | 58.36887 | 44.53338 | 38819 ft | 487 kts | 71° |
| 2026-05-05 07:08 | 58.38657 | 44.65712 | 38818 ft | 488 kts | 72° |
| 2026-05-05 07:09 | 58.40420 | 44.78165 | 38814 ft | 488 kts | 72° |
| 2026-05-05 07:09 | 58.42171 | 44.90619 | 38813 ft | 488 kts | 72° |
| 2026-05-05 07:10 | 58.43901 | 45.02999 | 38810 ft | 488 kts | 72° |
| 2026-05-05 07:10 | 58.45633 | 45.15490 | 38805 ft | 489 kts | 72° |
| 2026-05-05 07:11 | 58.47357 | 45.28023 | 38797 ft | 489 kts | 72° |
| 2026-05-05 07:11 | 58.49064 | 45.40516 | 38804 ft | 489 kts | 72° |
| 2026-05-05 07:12 | 58.50757 | 45.53009 | 38803 ft | 489 kts | 72° |
| 2026-05-05 07:12 | 58.52439 | 45.65568 | 38798 ft | 489 kts | 74° |
| 2026-05-05 07:13 | 58.53684 | 45.78333 | 38793 ft | 492 kts | 81° |
| 2026-05-05 07:13 | 58.54179 | 45.91332 | 38804 ft | 494 kts | 85° |
| 2026-05-05 07:14 | 58.54442 | 46.04469 | 38800 ft | 494 kts | 86° |
| 2026-05-05 07:14 | 58.54694 | 46.17495 | 38811 ft | 493 kts | 86° |
| 2026-05-05 07:15 | 58.54943 | 46.30556 | 38816 ft | 493 kts | 85° |
| 2026-05-05 07:15 | 58.55183 | 46.43573 | 38824 ft | 492 kts | 85° |
| 2026-05-05 07:16 | 58.55412 | 46.56589 | 38808 ft | 492 kts | 85° |
| 2026-05-05 07:16 | 58.55627 | 46.69649 | 38819 ft | 492 kts | 86° |
| 2026-05-05 07:17 | 58.55829 | 46.82634 | 38812 ft | 492 kts | 86° |
| 2026-05-05 07:17 | 58.56020 | 46.95721 | 38814 ft | 491 kts | 86° |
| 2026-05-05 07:18 | 58.56197 | 47.08742 | 38815 ft | 492 kts | 86° |
| 2026-05-05 07:18 | 58.56361 | 47.21722 | 38816 ft | 491 kts | 86° |
| 2026-05-05 07:19 | 58.56514 | 47.34730 | 38815 ft | 491 kts | 86° |
| 2026-05-05 07:19 | 58.56654 | 47.47814 | 38825 ft | 491 kts | 86° |
| 2026-05-05 07:20 | 58.56870 | 47.60786 | 38829 ft | 491 kts | 85° |
| 2026-05-05 07:20 | 58.57095 | 47.73788 | 38836 ft | 491 kts | 86° |
| 2026-05-05 07:21 | 58.57304 | 47.86846 | 38845 ft | 491 kts | 86° |
| 2026-05-05 07:21 | 58.57495 | 47.99789 | 38840 ft | 491 kts | 86° |
| 2026-05-05 07:22 | 58.57677 | 48.12848 | 38832 ft | 491 kts | 86° |
| 2026-05-05 07:22 | 58.57838 | 48.25816 | 38828 ft | 491 kts | 86° |
| 2026-05-05 07:23 | 58.57931 | 48.38849 | 38832 ft | 491 kts | 86° |
| 2026-05-05 07:23 | 58.58006 | 48.51855 | 38828 ft | 491 kts | 86° |
| 2026-05-05 07:24 | 58.58071 | 48.64917 | 38839 ft | 492 kts | 86° |
| 2026-05-05 07:24 | 58.58113 | 48.78020 | 38831 ft | 492 kts | 88° |
| 2026-05-05 07:25 | 58.58139 | 48.91022 | 38830 ft | 492 kts | 87° |
| 2026-05-05 07:25 | 58.58159 | 49.04138 | 38837 ft | 493 kts | 87° |
| 2026-05-05 07:26 | 58.58169 | 49.17210 | 38831 ft | 493 kts | 87° |
| 2026-05-05 07:26 | 58.58165 | 49.30265 | 38835 ft | 493 kts | 88° |
| 2026-05-05 07:27 | 58.58141 | 49.43286 | 38830 ft | 493 kts | 88° |
| 2026-05-05 07:27 | 58.58091 | 49.56431 | 38841 ft | 493 kts | 88° |
| 2026-05-05 07:28 | 58.58032 | 49.69469 | 38834 ft | 494 kts | 89° |
| 2026-05-05 07:28 | 58.57966 | 49.82552 | 38841 ft | 494 kts | 89° |
| 2026-05-05 07:29 | 58.57887 | 49.95702 | 38839 ft | 495 kts | 88° |
| 2026-05-05 07:29 | 58.57797 | 50.08808 | 38835 ft | 494 kts | 89° |
| 2026-05-05 07:30 | 58.57688 | 50.21951 | 38833 ft | 495 kts | 89° |
| 2026-05-05 07:30 | 58.57460 | 50.41584 | 38829 ft | 495 kts | 91° |
| 2026-05-05 07:31 | 58.56639 | 50.54657 | 38821 ft | 496 kts | 98° |
| 2026-05-05 07:31 | 58.55085 | 50.67458 | 38822 ft | 497 kts | 103° |
| 2026-05-05 07:32 | 58.53362 | 50.80180 | 38823 ft | 497 kts | 103° |
| 2026-05-05 07:32 | 58.51626 | 50.92938 | 38818 ft | 498 kts | 103° |
| 2026-05-05 07:33 | 58.49878 | 51.05740 | 38814 ft | 499 kts | 103° |
| 2026-05-05 07:33 | 58.48128 | 51.18463 | 38825 ft | 498 kts | 103° |
| 2026-05-05 07:34 | 58.46366 | 51.31177 | 38827 ft | 497 kts | 103° |
| 2026-05-05 07:34 | 58.44598 | 51.43849 | 38816 ft | 497 kts | 103° |
| 2026-05-05 07:35 | 58.42804 | 51.56590 | 38813 ft | 496 kts | 103° |
| 2026-05-05 07:35 | 58.41202 | 51.69301 | 38807 ft | 496 kts | 100° |
| 2026-05-05 07:36 | 58.39879 | 51.82114 | 38811 ft | 495 kts | 100° |
| 2026-05-05 07:36 | 58.38558 | 51.94918 | 38808 ft | 495 kts | 100° |
| 2026-05-05 07:37 | 58.37212 | 52.07717 | 38820 ft | 496 kts | 100° |
| 2026-05-05 07:37 | 58.35840 | 52.20548 | 38823 ft | 497 kts | 100° |
| 2026-05-05 07:38 | 58.34452 | 52.33380 | 38826 ft | 496 kts | 100° |
| 2026-05-05 07:38 | 58.33055 | 52.46203 | 38822 ft | 496 kts | 100° |
| 2026-05-05 07:39 | 58.31652 | 52.58986 | 38823 ft | 496 kts | 100° |
| 2026-05-05 07:39 | 58.30238 | 52.71740 | 38822 ft | 496 kts | 101° |
| 2026-05-05 07:40 | 58.28811 | 52.84518 | 38816 ft | 496 kts | 101° |
| 2026-05-05 07:40 | 58.27379 | 52.97190 | 38816 ft | 495 kts | 101° |
| 2026-05-05 07:41 | 58.25931 | 53.09913 | 38820 ft | 494 kts | 101° |
| 2026-05-05 07:41 | 58.24471 | 53.22597 | 38813 ft | 494 kts | 101° |
| 2026-05-05 07:42 | 58.22989 | 53.35341 | 38812 ft | 494 kts | 102° |
| 2026-05-05 07:42 | 58.21501 | 53.48022 | 38820 ft | 495 kts | 101° |
| 2026-05-05 07:43 | 58.20006 | 53.60660 | 38814 ft | 495 kts | 101° |
| 2026-05-05 07:43 | 58.18493 | 53.73349 | 38820 ft | 494 kts | 102° |
| 2026-05-05 07:44 | 58.16978 | 53.85959 | 38825 ft | 494 kts | 102° |
| 2026-05-05 07:44 | 58.15443 | 53.98569 | 38819 ft | 494 kts | 102° |
| 2026-05-05 07:45 | 58.13898 | 54.11184 | 38823 ft | 494 kts | 102° |
| 2026-05-05 07:45 | 58.12347 | 54.23770 | 38822 ft | 494 kts | 102° |
| 2026-05-05 07:46 | 58.10778 | 54.36422 | 38827 ft | 495 kts | 102° |
| 2026-05-05 07:46 | 58.09204 | 54.49007 | 38824 ft | 496 kts | 102° |
| 2026-05-05 07:47 | 58.07618 | 54.61594 | 38824 ft | 496 kts | 102° |
| 2026-05-05 07:47 | 58.06019 | 54.74212 | 38814 ft | 496 kts | 102° |
| 2026-05-05 07:48 | 58.04841 | 54.87028 | 38810 ft | 496 kts | 97° |
| 2026-05-05 07:48 | 58.03946 | 54.99859 | 38805 ft | 496 kts | 97° |
| 2026-05-05 07:49 | 58.03044 | 55.12671 | 38810 ft | 496 kts | 97° |
| 2026-05-05 07:49 | 58.02116 | 55.25474 | 38808 ft | 495 kts | 97° |
| 2026-05-05 07:50 | 58.01178 | 55.38261 | 38819 ft | 495 kts | 97° |
| 2026-05-05 07:50 | 58.00229 | 55.51136 | 38827 ft | 495 kts | 97° |
| 2026-05-05 07:51 | 57.99278 | 55.63857 | 38828 ft | 495 kts | 97° |
| 2026-05-05 07:51 | 57.98313 | 55.76631 | 38832 ft | 494 kts | 98° |
| 2026-05-05 07:52 | 57.97327 | 55.89449 | 38831 ft | 494 kts | 98° |
| 2026-05-05 07:52 | 57.96342 | 56.02124 | 38834 ft | 494 kts | 98° |
| 2026-05-05 07:53 | 57.95340 | 56.14873 | 38833 ft | 493 kts | 98° |
| 2026-05-05 07:53 | 57.94331 | 56.27557 | 38837 ft | 493 kts | 98° |
| 2026-05-05 07:54 | 57.93306 | 56.40271 | 38829 ft | 493 kts | 98° |
| 2026-05-05 07:54 | 57.92272 | 56.52929 | 38822 ft | 493 kts | 98° |
| 2026-05-05 07:55 | 57.91222 | 56.65649 | 38819 ft | 492 kts | 99° |
| 2026-05-05 07:55 | 57.90170 | 56.78255 | 38818 ft | 491 kts | 99° |
| 2026-05-05 07:56 | 57.89076 | 56.90944 | 38823 ft | 492 kts | 99° |
| 2026-05-05 07:56 | 57.87972 | 57.03534 | 38818 ft | 492 kts | 99° |
| 2026-05-05 07:57 | 57.86865 | 57.16190 | 38811 ft | 493 kts | 99° |
| 2026-05-05 07:57 | 57.85753 | 57.28842 | 38805 ft | 493 kts | 99° |
| 2026-05-05 07:58 | 57.84637 | 57.41422 | 38813 ft | 494 kts | 99° |
| 2026-05-05 07:58 | 57.83498 | 57.54108 | 38822 ft | 494 kts | 99° |
| 2026-05-05 07:59 | 57.82351 | 57.66754 | 38823 ft | 493 kts | 100° |
| 2026-05-05 07:59 | 57.81197 | 57.79391 | 38833 ft | 493 kts | 100° |
| 2026-05-05 08:00 | 57.80029 | 57.92023 | 38827 ft | 493 kts | 100° |
| 2026-05-05 08:00 | 57.78846 | 58.04596 | 38828 ft | 494 kts | 100° |
| 2026-05-05 08:01 | 57.77653 | 58.17187 | 38838 ft | 494 kts | 100° |
| 2026-05-05 08:01 | 57.76449 | 58.29803 | 38838 ft | 494 kts | 100° |
| 2026-05-05 08:02 | 57.75222 | 58.42439 | 38839 ft | 494 kts | 100° |
| 2026-05-05 08:02 | 57.73990 | 58.54992 | 38840 ft | 494 kts | 100° |
| 2026-05-05 08:03 | 57.72747 | 58.67623 | 38840 ft | 494 kts | 101° |
| 2026-05-05 08:03 | 57.71500 | 58.80218 | 38843 ft | 495 kts | 101° |
| 2026-05-05 08:04 | 57.70240 | 58.92793 | 38843 ft | 494 kts | 101° |
| 2026-05-05 08:04 | 57.68964 | 59.05391 | 38843 ft | 494 kts | 101° |
| 2026-05-05 08:05 | 57.67686 | 59.17874 | 38841 ft | 494 kts | 101° |
| 2026-05-05 08:05 | 57.66389 | 59.30428 | 38839 ft | 494 kts | 101° |
| 2026-05-05 08:06 | 57.65085 | 59.42911 | 38835 ft | 494 kts | 101° |
| 2026-05-05 08:06 | 57.63765 | 59.55427 | 38831 ft | 494 kts | 101° |
| 2026-05-05 08:07 | 57.62431 | 59.67953 | 38830 ft | 494 kts | 102° |
| 2026-05-05 08:07 | 57.61082 | 59.80513 | 38834 ft | 494 kts | 102° |
| 2026-05-05 08:08 | 57.59727 | 59.92999 | 38827 ft | 493 kts | 102° |
| 2026-05-05 08:08 | 57.58368 | 60.05394 | 38829 ft | 493 kts | 102° |
| 2026-05-05 08:09 | 57.56988 | 60.17873 | 38829 ft | 492 kts | 102° |
| 2026-05-05 08:09 | 57.55606 | 60.30256 | 38825 ft | 493 kts | 102° |
| 2026-05-05 08:10 | 57.54202 | 60.42730 | 38829 ft | 493 kts | 102° |
| 2026-05-05 08:10 | 57.52811 | 60.55134 | 38825 ft | 494 kts | 101° |
| 2026-05-05 08:11 | 57.51914 | 60.67766 | 38826 ft | 495 kts | 95° |
| 2026-05-05 08:11 | 57.51531 | 60.80497 | 38828 ft | 495 kts | 94° |
| 2026-05-05 08:12 | 57.51172 | 60.93213 | 38825 ft | 494 kts | 94° |
| 2026-05-05 08:12 | 57.50789 | 61.05920 | 38823 ft | 494 kts | 94° |
| 2026-05-05 08:13 | 57.50389 | 61.18637 | 38820 ft | 495 kts | 94° |
| 2026-05-05 08:13 | 57.49977 | 61.31284 | 38820 ft | 494 kts | 94° |
| 2026-05-05 08:14 | 57.49555 | 61.43977 | 38819 ft | 495 kts | 94° |
| 2026-05-05 08:14 | 57.49117 | 61.56703 | 38817 ft | 496 kts | 94° |
| 2026-05-05 08:15 | 57.48657 | 61.69494 | 38816 ft | 496 kts | 95° |
| 2026-05-05 08:15 | 57.48189 | 61.82169 | 38817 ft | 496 kts | 95° |
| 2026-05-05 08:16 | 57.47710 | 61.94915 | 38816 ft | 496 kts | 95° |
| 2026-05-05 08:16 | 57.47226 | 62.07632 | 38819 ft | 497 kts | 95° |
| 2026-05-05 08:17 | 57.46720 | 62.20400 | 38819 ft | 496 kts | 95° |
| 2026-05-05 08:17 | 57.46203 | 62.33099 | 38822 ft | 496 kts | 95° |
| 2026-05-05 08:18 | 57.45681 | 62.45787 | 38817 ft | 496 kts | 95° |
| 2026-05-05 08:18 | 57.45150 | 62.58540 | 38823 ft | 497 kts | 95° |
| 2026-05-05 08:19 | 57.44604 | 62.71271 | 38821 ft | 496 kts | 95° |
| 2026-05-05 08:19 | 57.44049 | 62.84039 | 38819 ft | 497 kts | 95° |
| 2026-05-05 08:20 | 57.43485 | 62.96672 | 38818 ft | 497 kts | 95° |
| 2026-05-05 08:20 | 57.42902 | 63.09446 | 38818 ft | 497 kts | 96° |
| 2026-05-05 08:21 | 57.42309 | 63.22134 | 38814 ft | 497 kts | 95° |
| 2026-05-05 08:21 | 57.41703 | 63.34859 | 38815 ft | 498 kts | 96° |
| 2026-05-05 08:22 | 57.41084 | 63.47613 | 38812 ft | 498 kts | 95° |
| 2026-05-05 08:22 | 57.40452 | 63.60383 | 38815 ft | 499 kts | 95° |
| 2026-05-05 08:23 | 57.39725 | 63.73059 | 38818 ft | 498 kts | 100° |
| 2026-05-05 08:23 | 57.38323 | 63.85554 | 38815 ft | 496 kts | 106° |
| 2026-05-05 08:24 | 57.36575 | 63.97852 | 38818 ft | 496 kts | 106° |
| 2026-05-05 08:24 | 57.34821 | 64.10112 | 38821 ft | 496 kts | 106° |
| 2026-05-05 08:25 | 57.33058 | 64.22420 | 38822 ft | 497 kts | 106° |
| 2026-05-05 08:25 | 57.31290 | 64.34705 | 38823 ft | 498 kts | 106° |
| 2026-05-05 08:26 | 57.29502 | 64.47017 | 38826 ft | 499 kts | 106° |
| 2026-05-05 08:26 | 57.27682 | 64.59391 | 38825 ft | 499 kts | 106° |
| 2026-05-05 08:27 | 57.25866 | 64.71641 | 38825 ft | 498 kts | 107° |
| 2026-05-05 08:27 | 57.24036 | 64.83939 | 38826 ft | 499 kts | 107° |
| 2026-05-05 08:28 | 57.22201 | 64.96193 | 38836 ft | 499 kts | 107° |
| 2026-05-05 08:28 | 57.20342 | 65.08516 | 38833 ft | 499 kts | 107° |
| 2026-05-05 08:29 | 57.18482 | 65.20756 | 38833 ft | 499 kts | 107° |
| 2026-05-05 08:30 | 57.15891 | 65.39299 | 38838 ft | 499 kts | 103° |
| 2026-05-05 08:30 | 57.14424 | 65.51691 | 38832 ft | 500 kts | 103° |
| 2026-05-05 08:31 | 57.12944 | 65.64127 | 38833 ft | 500 kts | 103° |
| 2026-05-05 08:31 | 57.11446 | 65.76602 | 38833 ft | 500 kts | 104° |
| 2026-05-05 08:32 | 57.09938 | 65.89041 | 38829 ft | 500 kts | 103° |
| 2026-05-05 08:32 | 57.08416 | 66.01454 | 38831 ft | 500 kts | 103° |
| 2026-05-05 08:33 | 57.06885 | 66.13826 | 38835 ft | 501 kts | 104° |
| 2026-05-05 08:33 | 57.05329 | 66.26302 | 38834 ft | 502 kts | 104° |
| 2026-05-05 08:34 | 57.03760 | 66.38753 | 38837 ft | 504 kts | 104° |
| 2026-05-05 08:34 | 57.02182 | 66.51183 | 38832 ft | 503 kts | 104° |
| 2026-05-05 08:35 | 57.00591 | 66.63608 | 38842 ft | 503 kts | 104° |
| 2026-05-05 08:35 | 56.98985 | 66.76056 | 38843 ft | 503 kts | 104° |
| 2026-05-05 08:36 | 56.97372 | 66.88453 | 38834 ft | 504 kts | 104° |
| 2026-05-05 08:36 | 56.95736 | 67.00908 | 38828 ft | 506 kts | 104° |
| 2026-05-05 08:37 | 56.94082 | 67.13402 | 38844 ft | 507 kts | 104° |
| 2026-05-05 08:37 | 56.92413 | 67.25886 | 38835 ft | 506 kts | 104° |
| 2026-05-05 08:38 | 56.90743 | 67.38285 | 38830 ft | 507 kts | 104° |
| 2026-05-05 08:38 | 56.89035 | 67.50762 | 38829 ft | 507 kts | 104° |
| 2026-05-05 08:39 | 56.87299 | 67.63215 | 38819 ft | 507 kts | 104° |
| 2026-05-05 08:39 | 56.85567 | 67.75677 | 38817 ft | 507 kts | 105° |
| 2026-05-05 08:40 | 56.83838 | 67.88090 | 38822 ft | 508 kts | 105° |
| 2026-05-05 08:40 | 56.82103 | 68.00463 | 38812 ft | 507 kts | 105° |
| 2026-05-05 08:41 | 56.80339 | 68.12927 | 38820 ft | 508 kts | 105° |
| 2026-05-05 08:41 | 56.78572 | 68.25339 | 38822 ft | 509 kts | 105° |
| 2026-05-05 08:42 | 56.76790 | 68.37730 | 38806 ft | 509 kts | 105° |
| 2026-05-05 08:42 | 56.74983 | 68.50198 | 38818 ft | 509 kts | 105° |
| 2026-05-05 08:43 | 56.73172 | 68.62610 | 38826 ft | 510 kts | 105° |
| 2026-05-05 08:43 | 56.71353 | 68.75005 | 38831 ft | 510 kts | 106° |
| 2026-05-05 08:44 | 56.69530 | 68.87328 | 38845 ft | 510 kts | 106° |
| 2026-05-05 08:44 | 56.67679 | 68.99734 | 38837 ft | 510 kts | 106° |
| 2026-05-05 08:45 | 56.65813 | 69.12122 | 38813 ft | 511 kts | 106° |
| 2026-05-05 08:45 | 56.63939 | 69.24491 | 38826 ft | 510 kts | 106° |
| 2026-05-05 08:46 | 56.62055 | 69.36828 | 38836 ft | 510 kts | 106° |
| 2026-05-05 08:46 | 56.60158 | 69.49168 | 38835 ft | 510 kts | 106° |
| 2026-05-05 08:47 | 56.58246 | 69.61520 | 38844 ft | 510 kts | 106° |
| 2026-05-05 08:47 | 56.56318 | 69.73898 | 38827 ft | 510 kts | 107° |
| 2026-05-05 08:48 | 56.54401 | 69.86149 | 38841 ft | 511 kts | 107° |
| 2026-05-05 08:48 | 56.52447 | 69.98502 | 38841 ft | 512 kts | 107° |
| 2026-05-05 08:49 | 56.50369 | 70.10759 | 38859 ft | 512 kts | 109° |
| 2026-05-05 08:49 | 56.48160 | 70.22951 | 38850 ft | 513 kts | 109° |
| 2026-05-05 08:50 | 56.45949 | 70.35139 | 38847 ft | 512 kts | 109° |
| 2026-05-05 08:50 | 56.43740 | 70.47337 | 38838 ft | 513 kts | 109° |
| 2026-05-05 08:51 | 56.41524 | 70.59525 | 38839 ft | 513 kts | 109° |
| 2026-05-05 08:51 | 56.39308 | 70.71662 | 38848 ft | 513 kts | 109° |
| 2026-05-05 08:52 | 56.37080 | 70.83804 | 38845 ft | 513 kts | 109° |
| 2026-05-05 08:52 | 56.34827 | 70.95982 | 38849 ft | 513 kts | 109° |
| 2026-05-05 08:53 | 56.32572 | 71.08080 | 38855 ft | 513 kts | 110° |
| 2026-05-05 08:53 | 56.30292 | 71.20225 | 38864 ft | 513 kts | 109° |
| 2026-05-05 08:54 | 56.28003 | 71.32355 | 38857 ft | 513 kts | 109° |
| 2026-05-05 08:54 | 56.25709 | 71.44422 | 38861 ft | 514 kts | 110° |
| 2026-05-05 08:55 | 56.23396 | 71.56525 | 38872 ft | 514 kts | 110° |
| 2026-05-05 08:55 | 56.21067 | 71.68625 | 38871 ft | 514 kts | 110° |
| 2026-05-05 08:56 | 56.18731 | 71.80729 | 38861 ft | 514 kts | 110° |
| 2026-05-05 08:56 | 56.16389 | 71.92760 | 38872 ft | 514 kts | 110° |
| 2026-05-05 08:57 | 56.14026 | 72.04815 | 38870 ft | 515 kts | 110° |
| 2026-05-05 08:57 | 56.11659 | 72.16813 | 38872 ft | 515 kts | 110° |
| 2026-05-05 08:58 | 56.09259 | 72.28908 | 38876 ft | 514 kts | 110° |
| 2026-05-05 08:58 | 56.06865 | 72.40894 | 38884 ft | 514 kts | 110° |
| 2026-05-05 08:59 | 56.04464 | 72.52853 | 38886 ft | 515 kts | 110° |
| 2026-05-05 08:59 | 56.02045 | 72.64822 | 38885 ft | 515 kts | 110° |
| 2026-05-05 09:00 | 55.99615 | 72.76809 | 38885 ft | 515 kts | 111° |
| 2026-05-05 09:00 | 55.97185 | 72.88709 | 38906 ft | 514 kts | 111° |
| 2026-05-05 09:01 | 55.94733 | 73.00635 | 38903 ft | 514 kts | 111° |
| 2026-05-05 09:01 | 55.92266 | 73.12580 | 38921 ft | 514 kts | 111° |
| 2026-05-05 09:02 | 55.89790 | 73.24465 | 38905 ft | 515 kts | 111° |
| 2026-05-05 09:02 | 55.87333 | 73.36429 | 38885 ft | 516 kts | 110° |
| 2026-05-05 09:03 | 55.84918 | 73.48419 | 38926 ft | 516 kts | 110° |
| 2026-05-05 09:03 | 55.82517 | 73.60316 | 38913 ft | 515 kts | 110° |
| 2026-05-05 09:04 | 55.80094 | 73.72281 | 38919 ft | 516 kts | 111° |
| 2026-05-05 09:04 | 55.77676 | 73.84174 | 38920 ft | 516 kts | 111° |
| 2026-05-05 09:05 | 55.75234 | 73.96081 | 38931 ft | 516 kts | 111° |
| 2026-05-05 09:05 | 55.72776 | 74.07983 | 38954 ft | 516 kts | 110° |
| 2026-05-05 09:06 | 55.70309 | 74.19856 | 38921 ft | 516 kts | 110° |
| 2026-05-05 09:06 | 55.67815 | 74.31805 | 38936 ft | 516 kts | 111° |
| 2026-05-05 09:07 | 55.65335 | 74.43597 | 38941 ft | 517 kts | 111° |
| 2026-05-05 09:07 | 55.62811 | 74.55529 | 38932 ft | 518 kts | 110° |
| 2026-05-05 09:08 | 55.60300 | 74.67338 | 38936 ft | 518 kts | 111° |
| 2026-05-05 09:08 | 55.57778 | 74.79178 | 38946 ft | 517 kts | 111° |
| 2026-05-05 09:09 | 55.55223 | 74.91061 | 38942 ft | 517 kts | 111° |
| 2026-05-05 09:09 | 55.52679 | 75.02815 | 38956 ft | 517 kts | 111° |
| 2026-05-05 09:10 | 55.50121 | 75.14574 | 38942 ft | 516 kts | 111° |
| 2026-05-05 09:10 | 55.47534 | 75.26395 | 38929 ft | 517 kts | 111° |
| 2026-05-05 09:11 | 55.44955 | 75.38122 | 38959 ft | 517 kts | 111° |
| 2026-05-05 09:11 | 55.42363 | 75.49834 | 38953 ft | 516 kts | 111° |
| 2026-05-05 09:12 | 55.39747 | 75.61588 | 38936 ft | 517 kts | 111° |
| 2026-05-05 09:12 | 55.37128 | 75.73308 | 38961 ft | 517 kts | 111° |
| 2026-05-05 09:13 | 55.34513 | 75.84941 | 38958 ft | 516 kts | 111° |
| 2026-05-05 09:13 | 55.31885 | 75.96567 | 38951 ft | 516 kts | 111° |
| 2026-05-05 09:14 | 55.29242 | 76.08187 | 38968 ft | 516 kts | 111° |
| 2026-05-05 09:14 | 55.26570 | 76.19860 | 38973 ft | 516 kts | 111° |
| 2026-05-05 09:15 | 55.23897 | 76.31484 | 38978 ft | 516 kts | 111° |
| 2026-05-05 09:15 | 55.21228 | 76.43019 | 38969 ft | 515 kts | 111° |
| 2026-05-05 09:16 | 55.18539 | 76.54578 | 38985 ft | 516 kts | 111° |
| 2026-05-05 09:16 | 55.15830 | 76.66165 | 38979 ft | 515 kts | 112° |
| 2026-05-05 09:17 | 55.13137 | 76.77650 | 38983 ft | 515 kts | 111° |
| 2026-05-05 09:17 | 55.10418 | 76.89177 | 38979 ft | 515 kts | 111° |
| 2026-05-05 09:18 | 55.07682 | 77.00698 | 38985 ft | 514 kts | 111° |
| 2026-05-05 09:18 | 55.04944 | 77.12161 | 38985 ft | 514 kts | 111° |
| 2026-05-05 09:19 | 55.02208 | 77.23564 | 38989 ft | 513 kts | 111° |
| 2026-05-05 09:19 | 54.99450 | 77.35004 | 39001 ft | 513 kts | 111° |
| 2026-05-05 09:20 | 54.96704 | 77.46339 | 38988 ft | 513 kts | 111° |
| 2026-05-05 09:20 | 54.94074 | 77.57861 | 38999 ft | 511 kts | 107° |
| 2026-05-05 09:21 | 54.92189 | 77.69673 | 39003 ft | 509 kts | 100° |
| 2026-05-05 09:21 | 54.91070 | 77.81692 | 39019 ft | 508 kts | 95° |
| 2026-05-05 09:22 | 54.90121 | 77.93773 | 39016 ft | 508 kts | 95° |
| 2026-05-05 09:22 | 54.89115 | 78.05891 | 39046 ft | 507 kts | 96° |
| 2026-05-05 09:23 | 54.88090 | 78.17905 | 39052 ft | 506 kts | 96° |
| 2026-05-05 09:23 | 54.87061 | 78.29934 | 39074 ft | 505 kts | 96° |
| 2026-05-05 09:24 | 54.86026 | 78.41981 | 39063 ft | 505 kts | 96° |
| 2026-05-05 09:24 | 54.84987 | 78.53960 | 39052 ft | 504 kts | 96° |
| 2026-05-05 09:25 | 54.83941 | 78.65878 | 39064 ft | 504 kts | 97° |
| 2026-05-05 09:25 | 54.82882 | 78.77827 | 39077 ft | 504 kts | 97° |
| 2026-05-05 09:26 | 54.81809 | 78.89768 | 39077 ft | 503 kts | 97° |
| 2026-05-05 09:26 | 54.80725 | 79.01684 | 39079 ft | 503 kts | 97° |
| 2026-05-05 09:27 | 54.79627 | 79.13635 | 39068 ft | 503 kts | 97° |
| 2026-05-05 09:27 | 54.78521 | 79.25519 | 39065 ft | 504 kts | 97° |
| 2026-05-05 09:28 | 54.77405 | 79.37423 | 39068 ft | 504 kts | 97° |
| 2026-05-05 09:28 | 54.76271 | 79.49349 | 39067 ft | 504 kts | 97° |
| 2026-05-05 09:29 | 54.75127 | 79.61270 | 39077 ft | 504 kts | 97° |
| 2026-05-05 09:29 | 54.73968 | 79.73216 | 39070 ft | 505 kts | 97° |
| 2026-05-05 09:30 | 54.72797 | 79.85169 | 39076 ft | 505 kts | 97° |
| 2026-05-05 09:30 | 54.71621 | 79.97054 | 39081 ft | 506 kts | 97° |
| 2026-05-05 09:31 | 54.70430 | 80.08948 | 39078 ft | 504 kts | 98° |
| 2026-05-05 09:31 | 54.69225 | 80.20850 | 39081 ft | 504 kts | 97° |
| 2026-05-05 09:32 | 54.68008 | 80.32759 | 39074 ft | 504 kts | 97° |
| 2026-05-05 09:32 | 54.66785 | 80.44624 | 39078 ft | 504 kts | 97° |
| 2026-05-05 09:33 | 54.65549 | 80.56484 | 39082 ft | 504 kts | 97° |
| 2026-05-05 09:33 | 54.64303 | 80.68355 | 39077 ft | 503 kts | 98° |
| 2026-05-05 09:34 | 54.63052 | 80.80183 | 39071 ft | 504 kts | 98° |
| 2026-05-05 09:34 | 54.61793 | 80.91990 | 39080 ft | 504 kts | 98° |
| 2026-05-05 09:35 | 54.60507 | 81.03858 | 39076 ft | 503 kts | 98° |
| 2026-05-05 09:35 | 54.58544 | 81.21526 | 39094 ft | 502 kts | 98° |
| 2026-05-05 09:36 | 54.57235 | 81.33257 | 39096 ft | 502 kts | 98° |
| 2026-05-05 09:36 | 54.55917 | 81.45026 | 39095 ft | 503 kts | 98° |
| 2026-05-05 09:37 | 54.54590 | 81.56763 | 39098 ft | 501 kts | 98° |
| 2026-05-05 09:37 | 54.53251 | 81.68526 | 39097 ft | 501 kts | 99° |
| 2026-05-05 09:38 | 54.51908 | 81.80221 | 39111 ft | 501 kts | 99° |
| 2026-05-05 09:38 | 54.50559 | 81.91886 | 39107 ft | 501 kts | 99° |
| 2026-05-05 09:39 | 54.49188 | 82.03629 | 39112 ft | 500 kts | 98° |
| 2026-05-05 09:39 | 54.47811 | 82.15301 | 39101 ft | 501 kts | 99° |
| 2026-05-05 09:40 | 54.46458 | 82.26932 | 39105 ft | 501 kts | 98° |
| 2026-05-05 09:40 | 54.45120 | 82.38599 | 39102 ft | 501 kts | 98° |
| 2026-05-05 09:41 | 54.43768 | 82.50347 | 39110 ft | 502 kts | 98° |
| 2026-05-05 09:41 | 54.42413 | 82.61996 | 39111 ft | 501 kts | 98° |
| 2026-05-05 09:42 | 54.41043 | 82.73708 | 39100 ft | 501 kts | 99° |
| 2026-05-05 09:42 | 54.39673 | 82.85321 | 39109 ft | 501 kts | 99° |
| 2026-05-05 09:43 | 54.38267 | 82.96996 | 39109 ft | 501 kts | 99° |
| 2026-05-05 09:43 | 54.36795 | 83.08676 | 39112 ft | 501 kts | 99° |
| 2026-05-05 09:44 | 54.35329 | 83.20251 | 39116 ft | 500 kts | 99° |
| 2026-05-05 09:44 | 54.33856 | 83.31852 | 39118 ft | 500 kts | 99° |
| 2026-05-05 09:45 | 54.32380 | 83.43409 | 39118 ft | 500 kts | 99° |
| 2026-05-05 09:45 | 54.30885 | 83.55005 | 39124 ft | 500 kts | 99° |
| 2026-05-05 09:46 | 54.29386 | 83.66566 | 39119 ft | 500 kts | 100° |
| 2026-05-05 09:46 | 54.27883 | 83.78112 | 39123 ft | 500 kts | 100° |
| 2026-05-05 09:47 | 54.26359 | 83.89705 | 39129 ft | 501 kts | 100° |
| 2026-05-05 09:47 | 54.24826 | 84.01245 | 39131 ft | 500 kts | 100° |
| 2026-05-05 09:48 | 54.23283 | 84.12713 | 39136 ft | 499 kts | 100° |
| 2026-05-05 09:48 | 54.21721 | 84.24198 | 39141 ft | 499 kts | 100° |
| 2026-05-05 09:49 | 54.20149 | 84.35736 | 39138 ft | 499 kts | 100° |
| 2026-05-05 09:49 | 54.18581 | 84.47189 | 39137 ft | 497 kts | 100° |
| 2026-05-05 09:50 | 54.17005 | 84.58604 | 39139 ft | 498 kts | 100° |
| 2026-05-05 09:50 | 54.15416 | 84.70039 | 39150 ft | 497 kts | 101° |
| 2026-05-05 09:51 | 54.13825 | 84.81445 | 39155 ft | 498 kts | 101° |
| 2026-05-05 09:51 | 54.12207 | 84.92940 | 39157 ft | 498 kts | 101° |
| 2026-05-05 09:52 | 54.10591 | 85.04305 | 39160 ft | 499 kts | 101° |
| 2026-05-05 09:52 | 54.08855 | 85.15694 | 39159 ft | 499 kts | 102° |
| 2026-05-05 09:53 | 54.07076 | 85.27089 | 39162 ft | 498 kts | 102° |
| 2026-05-05 09:53 | 54.05315 | 85.38393 | 39164 ft | 498 kts | 102° |
| 2026-05-05 09:54 | 54.03543 | 85.49747 | 39166 ft | 499 kts | 102° |
| 2026-05-05 09:54 | 54.01760 | 85.61103 | 39164 ft | 499 kts | 102° |
| 2026-05-05 09:55 | 53.99968 | 85.72452 | 39166 ft | 498 kts | 102° |
| 2026-05-05 09:55 | 53.98170 | 85.83772 | 39155 ft | 498 kts | 102° |
| 2026-05-05 09:56 | 53.96364 | 85.95054 | 39165 ft | 498 kts | 102° |
| 2026-05-05 09:56 | 53.94545 | 86.06351 | 39171 ft | 498 kts | 102° |
| 2026-05-05 09:57 | 53.92717 | 86.17585 | 39154 ft | 498 kts | 102° |
| 2026-05-05 09:57 | 53.90860 | 86.28875 | 39158 ft | 498 kts | 102° |
| 2026-05-05 09:58 | 53.88988 | 86.40152 | 39158 ft | 498 kts | 103° |
| 2026-05-05 09:58 | 53.87110 | 86.51318 | 39163 ft | 498 kts | 102° |
| 2026-05-05 09:59 | 53.85222 | 86.62605 | 39166 ft | 498 kts | 102° |
| 2026-05-05 09:59 | 53.83355 | 86.73808 | 39164 ft | 499 kts | 103° |
| 2026-05-05 10:00 | 53.81459 | 86.85078 | 39163 ft | 499 kts | 103° |
| 2026-05-05 10:00 | 53.79337 | 86.96230 | 39174 ft | 500 kts | 106° |
| 2026-05-05 10:01 | 53.77146 | 87.07258 | 39180 ft | 500 kts | 105° |
| 2026-05-05 10:01 | 53.74934 | 87.18399 | 39191 ft | 500 kts | 105° |
| 2026-05-05 10:02 | 53.72734 | 87.29462 | 39194 ft | 500 kts | 105° |
| 2026-05-05 10:02 | 53.70525 | 87.40533 | 39194 ft | 500 kts | 105° |
| 2026-05-05 10:03 | 53.68307 | 87.51601 | 39196 ft | 500 kts | 105° |
| 2026-05-05 10:03 | 53.66074 | 87.62615 | 39200 ft | 501 kts | 106° |
| 2026-05-05 10:04 | 53.63797 | 87.73695 | 39196 ft | 502 kts | 107° |
| 2026-05-05 10:04 | 53.61527 | 87.84740 | 39196 ft | 502 kts | 107° |
| 2026-05-05 10:05 | 53.59255 | 87.95753 | 39201 ft | 502 kts | 107° |
| 2026-05-05 10:05 | 53.56970 | 88.06777 | 39191 ft | 502 kts | 107° |
| 2026-05-05 10:06 | 53.54666 | 88.17844 | 39174 ft | 502 kts | 107° |
| 2026-05-05 10:06 | 53.52365 | 88.28834 | 39179 ft | 502 kts | 107° |
| 2026-05-05 10:07 | 53.50044 | 88.39858 | 39172 ft | 502 kts | 107° |
| 2026-05-05 10:07 | 53.47708 | 88.50899 | 39166 ft | 502 kts | 107° |
| 2026-05-05 10:08 | 53.45379 | 88.61861 | 39170 ft | 502 kts | 107° |
| 2026-05-05 10:08 | 53.43032 | 88.72867 | 39181 ft | 503 kts | 108° |
| 2026-05-05 10:09 | 53.40690 | 88.83809 | 39184 ft | 503 kts | 108° |
| 2026-05-05 10:09 | 53.38318 | 88.94762 | 39183 ft | 503 kts | 108° |
| 2026-05-05 10:10 | 53.35869 | 89.05725 | 39190 ft | 503 kts | 108° |
| 2026-05-05 10:10 | 53.33425 | 89.16607 | 39181 ft | 504 kts | 108° |
| 2026-05-05 10:11 | 53.30964 | 89.27556 | 39171 ft | 503 kts | 108° |
| 2026-05-05 10:11 | 53.28505 | 89.38460 | 39168 ft | 503 kts | 108° |
| 2026-05-05 10:12 | 53.26042 | 89.49327 | 39162 ft | 503 kts | 108° |
| 2026-05-05 10:12 | 53.23568 | 89.60193 | 39163 ft | 503 kts | 108° |
| 2026-05-05 10:13 | 53.21081 | 89.71066 | 39168 ft | 503 kts | 109° |
| 2026-05-05 10:13 | 53.18593 | 89.81906 | 39177 ft | 503 kts | 109° |
| 2026-05-05 10:14 | 53.16087 | 89.92760 | 39187 ft | 504 kts | 109° |
| 2026-05-05 10:14 | 53.13570 | 90.03592 | 39193 ft | 503 kts | 109° |
| 2026-05-05 10:15 | 53.11041 | 90.14418 | 39188 ft | 504 kts | 109° |
| 2026-05-05 10:15 | 53.08509 | 90.25205 | 39192 ft | 505 kts | 109° |
| 2026-05-05 10:16 | 53.05960 | 90.36004 | 39197 ft | 505 kts | 109° |
| 2026-05-05 10:16 | 53.03386 | 90.46862 | 39202 ft | 505 kts | 109° |
| 2026-05-05 10:17 | 53.00816 | 90.57639 | 39207 ft | 506 kts | 109° |
| 2026-05-05 10:17 | 52.98231 | 90.68447 | 39200 ft | 507 kts | 110° |
| 2026-05-05 10:18 | 52.95619 | 90.79329 | 39190 ft | 508 kts | 110° |
| 2026-05-05 10:18 | 52.93008 | 90.90135 | 39193 ft | 507 kts | 110° |
| 2026-05-05 10:19 | 52.90387 | 91.00927 | 39191 ft | 508 kts | 110° |
| 2026-05-05 10:19 | 52.87738 | 91.11694 | 39196 ft | 508 kts | 110° |
| 2026-05-05 10:20 | 52.85075 | 91.22479 | 39199 ft | 508 kts | 110° |
| 2026-05-05 10:20 | 52.82417 | 91.33297 | 39197 ft | 508 kts | 110° |
| 2026-05-05 10:21 | 52.79739 | 91.44072 | 39195 ft | 509 kts | 110° |
| 2026-05-05 10:21 | 52.77034 | 91.54796 | 39205 ft | 510 kts | 110° |
| 2026-05-05 10:22 | 52.74313 | 91.65587 | 39200 ft | 510 kts | 111° |
| 2026-05-05 10:22 | 52.71610 | 91.76332 | 39208 ft | 511 kts | 111° |
| 2026-05-05 10:23 | 52.68890 | 91.87094 | 39199 ft | 511 kts | 111° |
| 2026-05-05 10:23 | 52.66167 | 91.97797 | 39180 ft | 510 kts | 111° |
| 2026-05-05 10:24 | 52.63412 | 92.08581 | 39173 ft | 510 kts | 111° |
| 2026-05-05 10:24 | 52.60665 | 92.19270 | 39175 ft | 512 kts | 111° |
| 2026-05-05 10:25 | 52.57906 | 92.29967 | 39187 ft | 513 kts | 111° |
| 2026-05-05 10:25 | 52.55110 | 92.40743 | 39185 ft | 514 kts | 111° |
| 2026-05-05 10:26 | 52.52317 | 92.51466 | 39170 ft | 514 kts | 111° |
| 2026-05-05 10:26 | 52.49507 | 92.62202 | 39171 ft | 515 kts | 111° |
| 2026-05-05 10:27 | 52.46678 | 92.72982 | 39171 ft | 515 kts | 112° |
| 2026-05-05 10:27 | 52.43846 | 92.83717 | 39165 ft | 516 kts | 112° |
| 2026-05-05 10:28 | 52.41004 | 92.94433 | 39157 ft | 516 kts | 112° |
| 2026-05-05 10:28 | 52.38128 | 93.05218 | 39173 ft | 517 kts | 112° |
| 2026-05-05 10:29 | 52.35263 | 93.15913 | 39175 ft | 518 kts | 112° |
| 2026-05-05 10:29 | 52.32358 | 93.26708 | 39175 ft | 518 kts | 112° |
| 2026-05-05 10:30 | 52.29466 | 93.37407 | 39174 ft | 519 kts | 112° |
| 2026-05-05 10:30 | 52.26562 | 93.48099 | 39182 ft | 519 kts | 112° |
| 2026-05-05 10:31 | 52.23642 | 93.58810 | 39181 ft | 519 kts | 112° |
| 2026-05-05 10:31 | 52.20712 | 93.69534 | 39169 ft | 518 kts | 112° |
| 2026-05-05 10:32 | 52.17783 | 93.80211 | 39159 ft | 519 kts | 112° |
| 2026-05-05 10:32 | 52.14705 | 93.90810 | 39150 ft | 519 kts | 117° |
| 2026-05-05 10:33 | 52.11041 | 94.00876 | 39154 ft | 520 kts | 121° |
| 2026-05-05 10:33 | 52.07253 | 94.10843 | 39143 ft | 521 kts | 120° |
| 2026-05-05 10:34 | 52.03474 | 94.20799 | 39150 ft | 522 kts | 120° |
| 2026-05-05 10:34 | 51.99666 | 94.30811 | 39174 ft | 522 kts | 121° |
| 2026-05-05 10:35 | 51.95857 | 94.40795 | 39167 ft | 522 kts | 120° |
| 2026-05-05 10:35 | 51.92053 | 94.50738 | 39191 ft | 522 kts | 120° |
| 2026-05-05 10:36 | 51.88242 | 94.60635 | 39191 ft | 521 kts | 121° |
| 2026-05-05 10:36 | 51.84381 | 94.70572 | 39163 ft | 522 kts | 122° |
| 2026-05-05 10:37 | 51.80543 | 94.80466 | 39159 ft | 523 kts | 121° |
| 2026-05-05 10:37 | 51.76702 | 94.90341 | 39158 ft | 522 kts | 121° |
| 2026-05-05 10:38 | 51.72850 | 95.00217 | 39149 ft | 523 kts | 121° |
| 2026-05-05 10:38 | 51.68960 | 95.10157 | 39145 ft | 523 kts | 122° |
| 2026-05-05 10:39 | 51.65092 | 95.19991 | 39153 ft | 523 kts | 122° |
| 2026-05-05 10:39 | 51.61210 | 95.29826 | 39164 ft | 524 kts | 122° |
| 2026-05-05 10:40 | 51.57307 | 95.39674 | 39166 ft | 524 kts | 122° |
| 2026-05-05 10:40 | 51.53404 | 95.49482 | 39197 ft | 524 kts | 122° |
| 2026-05-05 10:41 | 51.49466 | 95.59340 | 39196 ft | 524 kts | 122° |
| 2026-05-05 10:41 | 51.45543 | 95.69134 | 39196 ft | 524 kts | 123° |
| 2026-05-05 10:42 | 51.39667 | 95.83765 | 39156 ft | 524 kts | 123° |
| 2026-05-05 10:43 | 51.35739 | 95.93477 | 39170 ft | 524 kts | 123° |
| 2026-05-05 10:43 | 51.31779 | 96.03234 | 39172 ft | 524 kts | 123° |
| 2026-05-05 10:44 | 51.27822 | 96.12942 | 39177 ft | 524 kts | 123° |
| 2026-05-05 10:44 | 51.23840 | 96.22669 | 39164 ft | 525 kts | 123° |
| 2026-05-05 10:45 | 51.19875 | 96.32322 | 39181 ft | 524 kts | 123° |
| 2026-05-05 10:45 | 51.15875 | 96.42023 | 39145 ft | 524 kts | 123° |
| 2026-05-05 10:46 | 51.11868 | 96.51702 | 39156 ft | 525 kts | 124° |
| 2026-05-05 10:46 | 51.07870 | 96.61330 | 39119 ft | 525 kts | 124° |
| 2026-05-05 10:47 | 51.03850 | 96.70984 | 39099 ft | 524 kts | 124° |
| 2026-05-05 10:47 | 50.99866 | 96.80540 | 39089 ft | 525 kts | 124° |
| 2026-05-05 10:48 | 50.95837 | 96.90143 | 39113 ft | 524 kts | 125° |
| 2026-05-05 10:48 | 50.91791 | 96.99743 | 39125 ft | 524 kts | 125° |
| 2026-05-05 10:49 | 50.87733 | 97.09302 | 39129 ft | 525 kts | 125° |
| 2026-05-05 10:49 | 50.83667 | 97.18812 | 39111 ft | 526 kts | 125° |
| 2026-05-05 10:50 | 50.79577 | 97.28388 | 39097 ft | 526 kts | 125° |
| 2026-05-05 10:50 | 50.75496 | 97.37940 | 39079 ft | 527 kts | 125° |
| 2026-05-05 10:51 | 50.71406 | 97.47481 | 39061 ft | 528 kts | 125° |
| 2026-05-05 10:51 | 50.67297 | 97.57043 | 39057 ft | 529 kts | 125° |
| 2026-05-05 10:52 | 50.63201 | 97.66557 | 39069 ft | 529 kts | 126° |
| 2026-05-05 10:52 | 50.59048 | 97.76134 | 39080 ft | 529 kts | 126° |
| 2026-05-05 10:53 | 50.54919 | 97.85571 | 39061 ft | 528 kts | 126° |
| 2026-05-05 10:53 | 50.50752 | 97.95092 | 39020 ft | 529 kts | 126° |
| 2026-05-05 10:54 | 50.46612 | 98.04538 | 39002 ft | 531 kts | 126° |
| 2026-05-05 10:54 | 50.42443 | 98.14037 | 38998 ft | 531 kts | 126° |
| 2026-05-05 10:55 | 50.38256 | 98.23531 | 38984 ft | 532 kts | 126° |
| 2026-05-05 10:55 | 50.34232 | 98.33202 | 38971 ft | 534 kts | 121° |
| 2026-05-05 10:56 | 50.30549 | 98.43294 | 38968 ft | 534 kts | 120° |
| 2026-05-05 10:56 | 50.26911 | 98.53327 | 38964 ft | 534 kts | 120° |
| 2026-05-05 10:57 | 50.23255 | 98.63359 | 38978 ft | 534 kts | 120° |
| 2026-05-05 10:57 | 50.19577 | 98.73425 | 38988 ft | 534 kts | 121° |
| 2026-05-05 10:58 | 50.15908 | 98.83425 | 38987 ft | 534 kts | 121° |
| 2026-05-05 10:58 | 50.12226 | 98.93407 | 38961 ft | 534 kts | 121° |
| 2026-05-05 10:59 | 50.08544 | 99.03340 | 38952 ft | 534 kts | 121° |
| 2026-05-05 10:59 | 50.04827 | 99.13326 | 38957 ft | 535 kts | 121° |
| 2026-05-05 11:00 | 50.01098 | 99.23311 | 38959 ft | 536 kts | 121° |
| 2026-05-05 11:00 | 49.97359 | 99.33283 | 38963 ft | 535 kts | 121° |
| 2026-05-05 11:01 | 49.93637 | 99.43171 | 38968 ft | 535 kts | 121° |
| 2026-05-05 11:01 | 49.89878 | 99.53124 | 38967 ft | 536 kts | 121° |
| 2026-05-05 11:02 | 49.86086 | 99.63049 | 38980 ft | 537 kts | 121° |
| 2026-05-05 11:02 | 49.82315 | 99.72928 | 38981 ft | 537 kts | 122° |
| 2026-05-05 11:03 | 49.78531 | 99.82861 | 39001 ft | 537 kts | 122° |
| 2026-05-05 11:03 | 49.74752 | 99.92744 | 39000 ft | 537 kts | 122° |
| 2026-05-05 11:04 | 49.70954 | 100.02647 | 38989 ft | 537 kts | 122° |
| 2026-05-05 11:04 | 49.67186 | 100.12563 | 38982 ft | 538 kts | 120° |
| 2026-05-05 11:05 | 49.63976 | 100.22922 | 38986 ft | 538 kts | 112° |
| 2026-05-05 11:05 | 49.61474 | 100.33682 | 38983 ft | 537 kts | 108° |
| 2026-05-05 11:06 | 49.59071 | 100.44544 | 39007 ft | 534 kts | 108° |
| 2026-05-05 11:06 | 49.56651 | 100.55321 | 38996 ft | 535 kts | 108° |
| 2026-05-05 11:07 | 49.54206 | 100.66093 | 39000 ft | 536 kts | 109° |
| 2026-05-05 11:07 | 49.51752 | 100.76856 | 38991 ft | 540 kts | 109° |
| 2026-05-05 11:08 | 49.49252 | 100.87783 | 38997 ft | 542 kts | 109° |
| 2026-05-05 11:08 | 49.46743 | 100.98621 | 39012 ft | 542 kts | 110° |
| 2026-05-05 11:09 | 49.44190 | 101.09466 | 39001 ft | 542 kts | 110° |
| 2026-05-05 11:09 | 49.41630 | 101.20351 | 38997 ft | 542 kts | 109° |
| 2026-05-05 11:10 | 49.39084 | 101.31154 | 39002 ft | 542 kts | 109° |
| 2026-05-05 11:10 | 49.36526 | 101.41980 | 39000 ft | 543 kts | 109° |
| 2026-05-05 11:11 | 49.33934 | 101.52885 | 38993 ft | 544 kts | 109° |
| 2026-05-05 11:11 | 49.31353 | 101.63702 | 38981 ft | 544 kts | 109° |
| 2026-05-05 11:12 | 49.28769 | 101.74503 | 38978 ft | 541 kts | 110° |
| 2026-05-05 11:12 | 49.26184 | 101.85272 | 38977 ft | 540 kts | 110° |
| 2026-05-05 11:13 | 49.23594 | 101.95982 | 38986 ft | 540 kts | 110° |
| 2026-05-05 11:13 | 49.20991 | 102.06705 | 38985 ft | 541 kts | 110° |
| 2026-05-05 11:14 | 49.18350 | 102.17436 | 38985 ft | 540 kts | 110° |
| 2026-05-05 11:14 | 49.15709 | 102.28110 | 38978 ft | 540 kts | 110° |
| 2026-05-05 11:15 | 49.13074 | 102.38757 | 38977 ft | 540 kts | 110° |
| 2026-05-05 11:15 | 49.10425 | 102.49431 | 38975 ft | 539 kts | 110° |
| 2026-05-05 11:16 | 49.07768 | 102.60084 | 38973 ft | 539 kts | 110° |
| 2026-05-05 11:16 | 49.05098 | 102.70765 | 38974 ft | 539 kts | 111° |
| 2026-05-05 11:17 | 49.02445 | 102.81335 | 38968 ft | 539 kts | 111° |
| 2026-05-05 11:17 | 48.99752 | 102.92000 | 38958 ft | 541 kts | 111° |
| 2026-05-05 11:18 | 48.97057 | 103.02609 | 38953 ft | 541 kts | 111° |
| 2026-05-05 11:18 | 48.94349 | 103.13234 | 38947 ft | 541 kts | 111° |
| 2026-05-05 11:19 | 48.91616 | 103.23917 | 38954 ft | 540 kts | 111° |
| 2026-05-05 11:19 | 48.88892 | 103.34499 | 38963 ft | 540 kts | 111° |
| 2026-05-05 11:20 | 48.86043 | 103.44982 | 38953 ft | 540 kts | 114° |
| 2026-05-05 11:20 | 48.83031 | 103.55409 | 38949 ft | 540 kts | 113° |
| 2026-05-05 11:21 | 48.80042 | 103.65797 | 38952 ft | 540 kts | 114° |
| 2026-05-05 11:21 | 48.77084 | 103.76160 | 38969 ft | 540 kts | 114° |
| 2026-05-05 11:22 | 48.74114 | 103.86549 | 38969 ft | 540 kts | 114° |
| 2026-05-05 11:22 | 48.71117 | 103.96968 | 38970 ft | 540 kts | 114° |
| 2026-05-05 11:23 | 48.68123 | 104.07326 | 38964 ft | 540 kts | 114° |
| 2026-05-05 11:23 | 48.65118 | 104.17686 | 38965 ft | 540 kts | 114° |
| 2026-05-05 11:24 | 48.62101 | 104.28024 | 38956 ft | 540 kts | 114° |
| 2026-05-05 11:24 | 48.59077 | 104.38356 | 38963 ft | 540 kts | 114° |
| 2026-05-05 11:25 | 48.56051 | 104.48652 | 38968 ft | 540 kts | 114° |
| 2026-05-05 11:25 | 48.53002 | 104.58984 | 38974 ft | 540 kts | 114° |
| 2026-05-05 11:26 | 48.49950 | 104.69287 | 38975 ft | 540 kts | 115° |
| 2026-05-05 11:26 | 48.46887 | 104.79607 | 38959 ft | 540 kts | 115° |
| 2026-05-05 11:27 | 48.43824 | 104.89871 | 38962 ft | 540 kts | 115° |
| 2026-05-05 11:27 | 48.40735 | 105.00161 | 38957 ft | 540 kts | 115° |
| 2026-05-05 11:28 | 48.37662 | 105.10342 | 38936 ft | 540 kts | 115° |
| 2026-05-05 11:28 | 48.34571 | 105.20563 | 38944 ft | 539 kts | 115° |
| 2026-05-05 11:29 | 48.31452 | 105.30831 | 38937 ft | 539 kts | 115° |
| 2026-05-05 11:29 | 48.28349 | 105.41006 | 38946 ft | 539 kts | 115° |
| 2026-05-05 11:30 | 48.25228 | 105.51197 | 38919 ft | 540 kts | 115° |
| 2026-05-05 11:30 | 48.22113 | 105.61343 | 38923 ft | 540 kts | 115° |
| 2026-05-05 11:31 | 48.18977 | 105.71537 | 38906 ft | 540 kts | 116° |
| 2026-05-05 11:31 | 48.15839 | 105.81718 | 38915 ft | 540 kts | 116° |
| 2026-05-05 11:32 | 48.12659 | 105.91899 | 38906 ft | 541 kts | 117° |
| 2026-05-05 11:32 | 48.09446 | 106.02063 | 38895 ft | 542 kts | 116° |
| 2026-05-05 11:33 | 48.06250 | 106.12186 | 38906 ft | 542 kts | 116° |
| 2026-05-05 11:33 | 48.03033 | 106.22369 | 38867 ft | 543 kts | 116° |
| 2026-05-05 11:34 | 47.99821 | 106.32495 | 38852 ft | 543 kts | 116° |
| 2026-05-05 11:34 | 47.96594 | 106.42626 | 38851 ft | 543 kts | 116° |
| 2026-05-05 11:35 | 47.93343 | 106.52808 | 38870 ft | 544 kts | 116° |
| 2026-05-05 11:35 | 47.90108 | 106.62915 | 38877 ft | 546 kts | 116° |
| 2026-05-05 11:36 | 47.86733 | 106.73041 | 38879 ft | 550 kts | 121° |
| 2026-05-05 11:36 | 47.82770 | 106.82748 | 38879 ft | 553 kts | 124° |
| 2026-05-05 11:37 | 47.78676 | 106.92382 | 38873 ft | 553 kts | 124° |
| 2026-05-05 11:37 | 47.74579 | 107.02052 | 38875 ft | 554 kts | 124° |
| 2026-05-05 11:38 | 47.70525 | 107.11652 | 38872 ft | 549 kts | 124° |
| 2026-05-05 11:38 | 47.66462 | 107.21172 | 38854 ft | 545 kts | 124° |
| 2026-05-05 11:39 | 47.62366 | 107.30608 | 38848 ft | 549 kts | 125° |
| 2026-05-05 11:39 | 47.58236 | 107.40126 | 38835 ft | 550 kts | 124° |
| 2026-05-05 11:40 | 47.54134 | 107.49582 | 38834 ft | 553 kts | 124° |
| 2026-05-05 11:40 | 47.50008 | 107.59087 | 38817 ft | 549 kts | 124° |
| 2026-05-05 11:41 | 47.45898 | 107.68542 | 38829 ft | 547 kts | 125° |
| 2026-05-05 11:41 | 47.41812 | 107.77926 | 38817 ft | 548 kts | 125° |
| 2026-05-05 11:42 | 47.37650 | 107.87380 | 38819 ft | 553 kts | 125° |
| 2026-05-05 11:42 | 47.33440 | 107.96889 | 38822 ft | 553 kts | 125° |
| 2026-05-05 11:43 | 47.29279 | 108.06296 | 38824 ft | 554 kts | 125° |
| 2026-05-05 11:43 | 47.25081 | 108.15768 | 38826 ft | 552 kts | 125° |
| 2026-05-05 11:44 | 47.20875 | 108.25243 | 38831 ft | 554 kts | 125° |
| 2026-05-05 11:44 | 47.16679 | 108.34660 | 38818 ft | 553 kts | 125° |
| 2026-05-05 11:45 | 47.12483 | 108.44053 | 38827 ft | 554 kts | 125° |
| 2026-05-05 11:45 | 47.08250 | 108.53497 | 38824 ft | 553 kts | 125° |
| 2026-05-05 11:46 | 47.04057 | 108.62841 | 38825 ft | 553 kts | 125° |
| 2026-05-05 11:46 | 46.99821 | 108.72233 | 38822 ft | 553 kts | 126° |
| 2026-05-05 11:47 | 46.95596 | 108.81541 | 38830 ft | 553 kts | 126° |
| 2026-05-05 11:47 | 46.91334 | 108.90919 | 38836 ft | 552 kts | 126° |
| 2026-05-05 11:48 | 46.84945 | 109.04878 | 38833 ft | 552 kts | 126° |
| 2026-05-05 11:48 | 46.80706 | 109.14111 | 38835 ft | 551 kts | 126° |
| 2026-05-05 11:49 | 46.76461 | 109.23354 | 38792 ft | 550 kts | 126° |
| 2026-05-05 11:49 | 46.72226 | 109.32556 | 38824 ft | 551 kts | 126° |
| 2026-05-05 11:50 | 46.67972 | 109.41775 | 38827 ft | 550 kts | 126° |
| 2026-05-05 11:50 | 46.63713 | 109.50976 | 38821 ft | 550 kts | 125° |
| 2026-05-05 11:51 | 46.59433 | 109.60181 | 38785 ft | 550 kts | 126° |
| 2026-05-05 11:51 | 46.55153 | 109.69382 | 38795 ft | 550 kts | 127° |
| 2026-05-05 11:52 | 46.50906 | 109.78496 | 38797 ft | 548 kts | 127° |
| 2026-05-05 11:52 | 46.46623 | 109.87640 | 38785 ft | 548 kts | 127° |
| 2026-05-05 11:53 | 46.42341 | 109.96735 | 38816 ft | 547 kts | 127° |
| 2026-05-05 11:53 | 46.38064 | 110.05795 | 38788 ft | 547 kts | 127° |
| 2026-05-05 11:54 | 46.33772 | 110.14850 | 38798 ft | 548 kts | 127° |
| 2026-05-05 11:54 | 46.29493 | 110.23856 | 38802 ft | 548 kts | 127° |
| 2026-05-05 11:55 | 46.25191 | 110.32878 | 38799 ft | 547 kts | 127° |
| 2026-05-05 11:55 | 46.20878 | 110.41894 | 38810 ft | 547 kts | 127° |
| 2026-05-05 11:56 | 46.16552 | 110.50907 | 38786 ft | 547 kts | 127° |
| 2026-05-05 11:56 | 46.12236 | 110.59866 | 38779 ft | 546 kts | 126° |
| 2026-05-05 11:57 | 46.07908 | 110.68838 | 38770 ft | 546 kts | 127° |
| 2026-05-05 11:57 | 46.03598 | 110.77769 | 38778 ft | 545 kts | 127° |
| 2026-05-05 11:58 | 45.99287 | 110.86657 | 38765 ft | 545 kts | 127° |
| 2026-05-05 11:58 | 45.94964 | 110.95526 | 38758 ft | 544 kts | 127° |
| 2026-05-05 11:59 | 45.90631 | 111.04382 | 38757 ft | 544 kts | 127° |
| 2026-05-05 11:59 | 45.86287 | 111.13192 | 38754 ft | 544 kts | 128° |
| 2026-05-05 12:00 | 45.81910 | 111.22028 | 38756 ft | 543 kts | 127° |
| 2026-05-05 12:00 | 45.77547 | 111.30846 | 38762 ft | 543 kts | 127° |
| 2026-05-05 12:01 | 45.73223 | 111.39568 | 38765 ft | 543 kts | 127° |
| 2026-05-05 12:01 | 45.68856 | 111.48359 | 38754 ft | 543 kts | 127° |
| 2026-05-05 12:02 | 45.64469 | 111.57163 | 38760 ft | 544 kts | 127° |
| 2026-05-05 12:02 | 45.60110 | 111.65883 | 38747 ft | 543 kts | 128° |
| 2026-05-05 12:03 | 45.55726 | 111.74663 | 38748 ft | 543 kts | 128° |
| 2026-05-05 12:03 | 45.51376 | 111.83337 | 38746 ft | 541 kts | 128° |
| 2026-05-05 12:04 | 45.46990 | 111.92033 | 38743 ft | 541 kts | 128° |
| 2026-05-05 12:04 | 45.42608 | 112.00692 | 38742 ft | 541 kts | 128° |
| 2026-05-05 12:05 | 45.38208 | 112.09358 | 38741 ft | 541 kts | 128° |
| 2026-05-05 12:05 | 45.33816 | 112.17986 | 38749 ft | 541 kts | 128° |
| 2026-05-05 12:06 | 45.29424 | 112.26591 | 38748 ft | 540 kts | 128° |
| 2026-05-05 12:06 | 45.25029 | 112.35169 | 38737 ft | 539 kts | 128° |
| 2026-05-05 12:07 | 45.20645 | 112.43702 | 38733 ft | 539 kts | 128° |
| 2026-05-05 12:07 | 45.16229 | 112.52274 | 38731 ft | 538 kts | 128° |
| 2026-05-05 12:08 | 45.11837 | 112.60775 | 38720 ft | 538 kts | 128° |
| 2026-05-05 12:08 | 45.07418 | 112.69315 | 38717 ft | 537 kts | 128° |
| 2026-05-05 12:09 | 45.03035 | 112.77786 | 38718 ft | 536 kts | 128° |
| 2026-05-05 12:09 | 44.98631 | 112.86253 | 38716 ft | 536 kts | 128° |
| 2026-05-05 12:10 | 44.94241 | 112.94657 | 38712 ft | 536 kts | 128° |
| 2026-05-05 12:10 | 44.89814 | 113.03112 | 38710 ft | 535 kts | 128° |
| 2026-05-05 12:11 | 44.85394 | 113.11498 | 38713 ft | 534 kts | 128° |
| 2026-05-05 12:11 | 44.81025 | 113.19890 | 38715 ft | 535 kts | 126° |
| 2026-05-05 12:12 | 44.77180 | 113.28784 | 38720 ft | 536 kts | 118° |
| 2026-05-05 12:12 | 44.74066 | 113.38273 | 38729 ft | 537 kts | 113° |
| 2026-05-05 12:13 | 44.71164 | 113.47922 | 38726 ft | 536 kts | 113° |
| 2026-05-05 12:13 | 44.68248 | 113.57528 | 38722 ft | 537 kts | 113° |
| 2026-05-05 12:14 | 44.65316 | 113.67084 | 38721 ft | 536 kts | 114° |
| 2026-05-05 12:14 | 44.62374 | 113.76651 | 38724 ft | 536 kts | 114° |
| 2026-05-05 12:15 | 44.59407 | 113.86248 | 38722 ft | 536 kts | 114° |
| 2026-05-05 12:15 | 44.56438 | 113.95798 | 38715 ft | 536 kts | 114° |
| 2026-05-05 12:16 | 44.53474 | 114.05292 | 38711 ft | 536 kts | 114° |
| 2026-05-05 12:16 | 44.50472 | 114.14869 | 38707 ft | 536 kts | 114° |
| 2026-05-05 12:17 | 44.47496 | 114.24337 | 38708 ft | 535 kts | 114° |
| 2026-05-05 12:17 | 44.44492 | 114.33861 | 38708 ft | 535 kts | 114° |
| 2026-05-05 12:18 | 44.41494 | 114.43321 | 38712 ft | 535 kts | 114° |
| 2026-05-05 12:18 | 44.38473 | 114.52822 | 38714 ft | 534 kts | 114° |
| 2026-05-05 12:19 | 44.35459 | 114.62269 | 38719 ft | 534 kts | 114° |
| 2026-05-05 12:19 | 44.32453 | 114.71674 | 38720 ft | 534 kts | 115° |
| 2026-05-05 12:20 | 44.29432 | 114.81110 | 38726 ft | 534 kts | 115° |
| 2026-05-05 12:20 | 44.26391 | 114.90549 | 38730 ft | 534 kts | 115° |
| 2026-05-05 12:21 | 44.23359 | 114.99922 | 38737 ft | 533 kts | 115° |
| 2026-05-05 12:21 | 44.20323 | 115.09274 | 38750 ft | 532 kts | 115° |
| 2026-05-05 12:22 | 44.17280 | 115.18618 | 38752 ft | 532 kts | 115° |
| 2026-05-05 12:22 | 44.14209 | 115.28009 | 38744 ft | 532 kts | 115° |
| 2026-05-05 12:23 | 44.11169 | 115.37277 | 38730 ft | 532 kts | 115° |
| 2026-05-05 12:23 | 44.08095 | 115.46618 | 38738 ft | 531 kts | 115° |
| 2026-05-05 12:24 | 44.05033 | 115.55897 | 38731 ft | 531 kts | 115° |
| 2026-05-05 12:24 | 44.01952 | 115.65211 | 38720 ft | 529 kts | 116° |
| 2026-05-05 12:25 | 43.98894 | 115.74473 | 38724 ft | 529 kts | 116° |
| 2026-05-05 12:25 | 43.95753 | 115.83677 | 38701 ft | 527 kts | 121° |
| 2026-05-05 12:26 | 43.91336 | 115.91565 | 38714 ft | 519 kts | 140° |
| 2026-05-05 12:26 | 43.85512 | 115.97197 | 38712 ft | 509 kts | 159° |
| 2026-05-05 12:27 | 43.78876 | 116.00246 | 38729 ft | 499 kts | 173° |
| 2026-05-05 12:27 | 43.72068 | 116.02109 | 38728 ft | 499 kts | 174° |
| 2026-05-05 12:28 | 43.65310 | 116.03956 | 38735 ft | 499 kts | 174° |
| 2026-05-05 12:28 | 43.58507 | 116.05863 | 38744 ft | 498 kts | 173° |
| 2026-05-05 12:29 | 43.51716 | 116.07785 | 38749 ft | 499 kts | 173° |
| 2026-05-05 12:29 | 43.44917 | 116.09707 | 38756 ft | 500 kts | 173° |
| 2026-05-05 12:30 | 43.41552 | 116.10662 | 39023 ft | 491 kts | 173° |
| 2026-05-05 12:30 | 43.38250 | 116.11600 | 39311 ft | 487 kts | 173° |
| 2026-05-05 12:30 | 43.34952 | 116.12532 | 39592 ft | 486 kts | 173° |
| 2026-05-05 12:30 | 43.31649 | 116.13467 | 39858 ft | 485 kts | 173° |
| 2026-05-05 12:31 | 43.28350 | 116.14402 | 40089 ft | 483 kts | 173° |
| 2026-05-05 12:31 | 43.25087 | 116.15324 | 40321 ft | 481 kts | 173° |
| 2026-05-05 12:31 | 43.21809 | 116.16246 | 40554 ft | 480 kts | 173° |
| 2026-05-05 12:31 | 43.18573 | 116.17234 | 40792 ft | 480 kts | 170° |
| 2026-05-05 12:32 | 43.12203 | 116.20167 | 40866 ft | 491 kts | 160° |
| 2026-05-05 12:32 | 43.06110 | 116.24564 | 40890 ft | 500 kts | 150° |
| 2026-05-05 12:33 | 43.00510 | 116.30263 | 40897 ft | 504 kts | 143° |
| 2026-05-05 12:33 | 42.95092 | 116.36293 | 40897 ft | 503 kts | 143° |
| 2026-05-05 12:34 | 42.89682 | 116.42259 | 40889 ft | 502 kts | 143° |
| 2026-05-05 12:34 | 42.84224 | 116.48195 | 40905 ft | 502 kts | 144° |
| 2026-05-05 12:35 | 42.78774 | 116.54105 | 40903 ft | 502 kts | 143° |
| 2026-05-05 12:35 | 42.73331 | 116.60010 | 40927 ft | 502 kts | 143° |
| 2026-05-05 12:36 | 42.67883 | 116.65915 | 40914 ft | 502 kts | 144° |
| 2026-05-05 12:36 | 42.62470 | 116.71800 | 40921 ft | 502 kts | 144° |
| 2026-05-05 12:37 | 42.57013 | 116.77705 | 40931 ft | 502 kts | 144° |
| 2026-05-05 12:37 | 42.51571 | 116.83566 | 40930 ft | 501 kts | 144° |
| 2026-05-05 12:38 | 42.46137 | 116.89410 | 40946 ft | 502 kts | 144° |
| 2026-05-05 12:38 | 42.40666 | 116.95287 | 40946 ft | 502 kts | 144° |
| 2026-05-05 12:39 | 42.35226 | 117.01110 | 40945 ft | 502 kts | 144° |
| 2026-05-05 12:39 | 42.29724 | 117.06961 | 40947 ft | 502 kts | 144° |
| 2026-05-05 12:40 | 42.24268 | 117.12762 | 40955 ft | 502 kts | 144° |
| 2026-05-05 12:40 | 42.18747 | 117.18520 | 40953 ft | 500 kts | 148° |
| 2026-05-05 12:41 | 42.12774 | 117.23154 | 40946 ft | 495 kts | 159° |
| 2026-05-05 12:41 | 42.06345 | 117.26247 | 40952 ft | 490 kts | 170° |
| 2026-05-05 12:42 | 41.99709 | 117.27834 | 40952 ft | 485 kts | 177° |
| 2026-05-05 12:42 | 41.93002 | 117.29003 | 40938 ft | 486 kts | 177° |
| 2026-05-05 12:43 | 41.86295 | 117.30152 | 40925 ft | 485 kts | 177° |
| 2026-05-05 12:43 | 41.79619 | 117.31270 | 40925 ft | 485 kts | 177° |
| 2026-05-05 12:44 | 41.72963 | 117.32407 | 40919 ft | 486 kts | 177° |
| 2026-05-05 12:44 | 41.66267 | 117.33557 | 40908 ft | 486 kts | 177° |
| 2026-05-05 12:45 | 41.59528 | 117.34718 | 40905 ft | 486 kts | 177° |
| 2026-05-05 12:45 | 41.52829 | 117.35870 | 40905 ft | 487 kts | 176° |
| 2026-05-05 12:46 | 41.46161 | 117.37016 | 40890 ft | 486 kts | 176° |
| 2026-05-05 12:46 | 41.39464 | 117.38166 | 40902 ft | 486 kts | 176° |
| 2026-05-05 12:47 | 41.32747 | 117.39319 | 40896 ft | 487 kts | 176° |
| 2026-05-05 12:47 | 41.26044 | 117.40474 | 40915 ft | 488 kts | 176° |
| 2026-05-05 12:48 | 41.19310 | 117.41638 | 40919 ft | 488 kts | 176° |
| 2026-05-05 12:48 | 41.12588 | 117.42758 | 40908 ft | 486 kts | 179° |
| 2026-05-05 12:49 | 41.05888 | 117.42874 | 40896 ft | 481 kts | 188° |
| 2026-05-05 12:49 | 40.99315 | 117.41612 | 40890 ft | 482 kts | 197° |
| 2026-05-05 12:50 | 40.92911 | 117.38998 | 40889 ft | 481 kts | 206° |
| 2026-05-05 12:50 | 40.86624 | 117.35805 | 40892 ft | 483 kts | 206° |
| 2026-05-05 12:51 | 40.80365 | 117.32645 | 40896 ft | 483 kts | 206° |
| 2026-05-05 12:51 | 40.74057 | 117.29459 | 40895 ft | 484 kts | 206° |
| 2026-05-05 12:52 | 40.67761 | 117.26327 | 40885 ft | 485 kts | 205° |
| 2026-05-05 12:52 | 40.61417 | 117.23308 | 40886 ft | 485 kts | 204° |
| 2026-05-05 12:53 | 40.55014 | 117.20289 | 40886 ft | 486 kts | 204° |
| 2026-05-05 12:53 | 40.48639 | 117.17287 | 40886 ft | 487 kts | 204° |
| 2026-05-05 12:54 | 40.39034 | 117.12775 | 40886 ft | 487 kts | 204° |
| 2026-05-05 12:55 | 40.32668 | 117.09792 | 40885 ft | 487 kts | 205° |
| 2026-05-05 12:55 | 40.26305 | 117.06815 | 40871 ft | 487 kts | 205° |
| 2026-05-05 12:56 | 40.19957 | 117.03854 | 40849 ft | 487 kts | 205° |
| 2026-05-05 12:56 | 40.13565 | 117.00878 | 40845 ft | 489 kts | 204° |
| 2026-05-05 12:57 | 40.07188 | 116.97916 | 40859 ft | 489 kts | 204° |
| 2026-05-05 12:57 | 40.00741 | 116.94932 | 40868 ft | 490 kts | 204° |
| 2026-05-05 12:58 | 39.94318 | 116.91975 | 40872 ft | 491 kts | 204° |
| 2026-05-05 12:58 | 39.87904 | 116.89027 | 40865 ft | 490 kts | 204° |
| 2026-05-05 12:59 | 39.81438 | 116.86314 | 40874 ft | 493 kts | 200° |
| 2026-05-05 12:59 | 39.74682 | 116.84450 | 40861 ft | 497 kts | 193° |
| 2026-05-05 13:00 | 39.64580 | 116.82767 | 40868 ft | 486 kts | 192° |
| 2026-05-05 13:01 | 39.51192 | 116.80564 | 40872 ft | 486 kts | 192° |
| 2026-05-05 13:01 | 39.44517 | 116.79467 | 40868 ft | 486 kts | 192° |
| 2026-05-05 13:02 | 39.37815 | 116.78365 | 40864 ft | 487 kts | 192° |
| 2026-05-05 13:02 | 39.31115 | 116.77268 | 40859 ft | 487 kts | 192° |
| 2026-05-05 13:03 | 39.24362 | 116.76164 | 40866 ft | 487 kts | 192° |
| 2026-05-05 13:03 | 39.17679 | 116.75074 | 40863 ft | 487 kts | 192° |
| 2026-05-05 13:04 | 39.10962 | 116.73981 | 40870 ft | 487 kts | 191° |
| 2026-05-05 13:04 | 39.04235 | 116.72889 | 40864 ft | 488 kts | 192° |
| 2026-05-05 13:05 | 38.97485 | 116.71794 | 40854 ft | 488 kts | 191° |
| 2026-05-05 13:05 | 38.90766 | 116.70710 | 40859 ft | 488 kts | 191° |
| 2026-05-05 13:06 | 38.84121 | 116.69647 | 40855 ft | 489 kts | 191° |
| 2026-05-05 13:06 | 38.77377 | 116.68573 | 40857 ft | 489 kts | 191° |
| 2026-05-05 13:07 | 38.70637 | 116.67503 | 40859 ft | 489 kts | 191° |
| 2026-05-05 13:07 | 38.63904 | 116.66438 | 40861 ft | 490 kts | 190° |
| 2026-05-05 13:08 | 38.57137 | 116.65627 | 40865 ft | 490 kts | 189° |
| 2026-05-05 13:08 | 38.50331 | 116.64849 | 40871 ft | 491 kts | 189° |
| 2026-05-05 13:09 | 38.43529 | 116.64083 | 40874 ft | 491 kts | 189° |
| 2026-05-05 13:09 | 38.36738 | 116.63403 | 40869 ft | 492 kts | 186° |
| 2026-05-05 13:10 | 38.29877 | 116.63560 | 40881 ft | 496 kts | 179° |
| 2026-05-05 13:10 | 38.23061 | 116.64800 | 40872 ft | 500 kts | 171° |
| 2026-05-05 13:11 | 38.16318 | 116.67086 | 40890 ft | 502 kts | 165° |
| 2026-05-05 13:11 | 38.09674 | 116.69649 | 40896 ft | 502 kts | 166° |
| 2026-05-05 13:12 | 38.03003 | 116.72175 | 40896 ft | 501 kts | 166° |
| 2026-05-05 13:12 | 37.96313 | 116.74712 | 40894 ft | 501 kts | 166° |
| 2026-05-05 13:13 | 37.89637 | 116.77247 | 40895 ft | 502 kts | 166° |
| 2026-05-05 13:13 | 37.82956 | 116.79773 | 40881 ft | 502 kts | 166° |
| 2026-05-05 13:14 | 37.76268 | 116.82301 | 40892 ft | 501 kts | 166° |
| 2026-05-05 13:14 | 37.69599 | 116.84821 | 40880 ft | 501 kts | 166° |
| 2026-05-05 13:15 | 37.62911 | 116.87347 | 40893 ft | 501 kts | 166° |
| 2026-05-05 13:15 | 37.56268 | 116.89854 | 40900 ft | 501 kts | 166° |
| 2026-05-05 13:16 | 37.49580 | 116.92376 | 40899 ft | 501 kts | 165° |
| 2026-05-05 13:16 | 37.42919 | 116.94888 | 40906 ft | 501 kts | 166° |
| 2026-05-05 13:17 | 37.36248 | 116.97405 | 40907 ft | 500 kts | 166° |
| 2026-05-05 13:17 | 37.29627 | 116.99922 | 40916 ft | 501 kts | 164° |
| 2026-05-05 13:18 | 37.23050 | 117.02930 | 40926 ft | 502 kts | 161° |
| 2026-05-05 13:18 | 37.16506 | 117.06005 | 40930 ft | 502 kts | 161° |
| 2026-05-05 13:19 | 37.10000 | 117.09033 | 40931 ft | 502 kts | 161° |
| 2026-05-05 13:19 | 37.03476 | 117.12087 | 40937 ft | 501 kts | 161° |
| 2026-05-05 13:20 | 36.96941 | 117.15148 | 40951 ft | 501 kts | 161° |
| 2026-05-05 13:20 | 36.90380 | 117.18082 | 40957 ft | 500 kts | 165° |
| 2026-05-05 13:21 | 36.83666 | 117.20150 | 40959 ft | 497 kts | 172° |
| 2026-05-05 13:21 | 36.76843 | 117.21228 | 40962 ft | 495 kts | 179° |
| 2026-05-05 13:22 | 36.69978 | 117.21378 | 40969 ft | 492 kts | 184° |
| 2026-05-05 13:22 | 36.63128 | 117.21343 | 40984 ft | 492 kts | 184° |
| 2026-05-05 13:23 | 36.56296 | 117.21319 | 41002 ft | 492 kts | 184° |
| 2026-05-05 13:23 | 36.49451 | 117.21298 | 41008 ft | 493 kts | 182° |
| 2026-05-05 13:24 | 36.42614 | 117.21866 | 41019 ft | 496 kts | 175° |
| 2026-05-05 13:24 | 36.35787 | 117.23422 | 41023 ft | 499 kts | 168° |
| 2026-05-05 13:25 | 36.29121 | 117.25814 | 41017 ft | 500 kts | 165° |
| 2026-05-05 13:25 | 36.22498 | 117.28328 | 41014 ft | 500 kts | 165° |
| 2026-05-05 13:26 | 36.15837 | 117.30823 | 41019 ft | 501 kts | 165° |
| 2026-05-05 13:26 | 36.09185 | 117.33304 | 41022 ft | 501 kts | 166° |
| 2026-05-05 13:27 | 36.02524 | 117.35783 | 41035 ft | 501 kts | 166° |
| 2026-05-05 13:27 | 35.95839 | 117.38245 | 41031 ft | 501 kts | 166° |
| 2026-05-05 13:28 | 35.89189 | 117.40700 | 41028 ft | 501 kts | 166° |
| 2026-05-05 13:28 | 35.82489 | 117.43185 | 41039 ft | 500 kts | 166° |
| 2026-05-05 13:29 | 35.75855 | 117.45654 | 41043 ft | 500 kts | 166° |
| 2026-05-05 13:29 | 35.69208 | 117.48128 | 41051 ft | 500 kts | 166° |
| 2026-05-05 13:30 | 35.62537 | 117.50610 | 41042 ft | 500 kts | 166° |
| 2026-05-05 13:30 | 35.55912 | 117.53072 | 41044 ft | 500 kts | 166° |
| 2026-05-05 13:31 | 35.49258 | 117.55542 | 41042 ft | 500 kts | 166° |
| 2026-05-05 13:31 | 35.42589 | 117.58012 | 41041 ft | 500 kts | 166° |
| 2026-05-05 13:32 | 35.35956 | 117.60468 | 41035 ft | 499 kts | 166° |
| 2026-05-05 13:32 | 35.29308 | 117.62926 | 41050 ft | 499 kts | 166° |
| 2026-05-05 13:33 | 35.22680 | 117.65379 | 41051 ft | 499 kts | 166° |
| 2026-05-05 13:33 | 35.16060 | 117.67858 | 41050 ft | 499 kts | 166° |
| 2026-05-05 13:34 | 35.09420 | 117.70320 | 41050 ft | 499 kts | 166° |
| 2026-05-05 13:34 | 35.02740 | 117.72758 | 41046 ft | 499 kts | 167° |
| 2026-05-05 13:35 | 34.96087 | 117.75186 | 41040 ft | 499 kts | 167° |
| 2026-05-05 13:35 | 34.89465 | 117.77620 | 41046 ft | 499 kts | 167° |
| 2026-05-05 13:36 | 34.82784 | 117.80058 | 41042 ft | 499 kts | 166° |
| 2026-05-05 13:36 | 34.76171 | 117.82429 | 41040 ft | 499 kts | 167° |
| 2026-05-05 13:37 | 34.69495 | 117.84807 | 41044 ft | 499 kts | 167° |
| 2026-05-05 13:37 | 34.62823 | 117.87198 | 41042 ft | 499 kts | 167° |
| 2026-05-05 13:38 | 34.56203 | 117.89577 | 41039 ft | 498 kts | 167° |
| 2026-05-05 13:38 | 34.49553 | 117.91965 | 41044 ft | 498 kts | 167° |
| 2026-05-05 13:39 | 34.42900 | 117.94354 | 41046 ft | 498 kts | 167° |
| 2026-05-05 13:39 | 34.36285 | 117.96731 | 41047 ft | 499 kts | 167° |
| 2026-05-05 13:40 | 34.29613 | 117.99123 | 41048 ft | 498 kts | 167° |
| 2026-05-05 13:40 | 34.22979 | 118.01500 | 41047 ft | 498 kts | 167° |
| 2026-05-05 13:41 | 34.16343 | 118.03911 | 41050 ft | 497 kts | 167° |
| 2026-05-05 13:41 | 34.09739 | 118.06328 | 41053 ft | 497 kts | 167° |
| 2026-05-05 13:42 | 34.03150 | 118.08736 | 41053 ft | 497 kts | 167° |
| 2026-05-05 13:42 | 33.96503 | 118.11153 | 41046 ft | 497 kts | 167° |
| 2026-05-05 13:43 | 33.89905 | 118.13560 | 41053 ft | 497 kts | 166° |
| 2026-05-05 13:43 | 33.83384 | 118.16442 | 41053 ft | 501 kts | 160° |
| 2026-05-05 13:44 | 33.77136 | 118.20219 | 41057 ft | 504 kts | 153° |
| 2026-05-05 13:44 | 33.71289 | 118.24796 | 41062 ft | 506 kts | 148° |
| 2026-05-05 13:45 | 33.65525 | 118.29631 | 41057 ft | 507 kts | 148° |
| 2026-05-05 13:45 | 33.59744 | 118.34457 | 41053 ft | 507 kts | 148° |
| 2026-05-05 13:46 | 33.53937 | 118.39276 | 41056 ft | 507 kts | 148° |
| 2026-05-05 13:46 | 33.48150 | 118.44067 | 41058 ft | 507 kts | 148° |
| 2026-05-05 13:47 | 33.42332 | 118.48878 | 41063 ft | 506 kts | 148° |
| 2026-05-05 13:47 | 33.36550 | 118.53655 | 41052 ft | 505 kts | 148° |
| 2026-05-05 13:48 | 33.33660 | 118.56042 | 40765 ft | 506 kts | 148° |
| 2026-05-05 13:48 | 33.30774 | 118.58427 | 40464 ft | 502 kts | 148° |
| 2026-05-05 13:48 | 33.27913 | 118.60794 | 40179 ft | 498 kts | 148° |
| 2026-05-05 13:48 | 33.25102 | 118.63114 | 39898 ft | 495 kts | 148° |
| 2026-05-05 13:49 | 33.22245 | 118.65465 | 39602 ft | 494 kts | 149° |
| 2026-05-05 13:49 | 33.19442 | 118.67778 | 39318 ft | 493 kts | 149° |
| 2026-05-05 13:49 | 33.16610 | 118.70122 | 39025 ft | 493 kts | 149° |
| 2026-05-05 13:49 | 33.13815 | 118.72439 | 38722 ft | 493 kts | 149° |
| 2026-05-05 13:50 | 33.11028 | 118.74754 | 38447 ft | 492 kts | 149° |
| 2026-05-05 13:50 | 33.08212 | 118.77091 | 38161 ft | 491 kts | 149° |
| 2026-05-05 13:50 | 33.05398 | 118.79424 | 37882 ft | 491 kts | 149° |
| 2026-05-05 13:50 | 33.02589 | 118.81753 | 37609 ft | 490 kts | 149° |
| 2026-05-05 13:51 | 32.99795 | 118.84067 | 37333 ft | 490 kts | 149° |
| 2026-05-05 13:51 | 32.97007 | 118.86375 | 37056 ft | 490 kts | 149° |
| 2026-05-05 13:51 | 32.94212 | 118.88691 | 36791 ft | 490 kts | 149° |
| 2026-05-05 13:51 | 32.91433 | 118.90997 | 36520 ft | 490 kts | 149° |
| 2026-05-05 13:52 | 32.88639 | 118.93307 | 36244 ft | 489 kts | 149° |
| 2026-05-05 13:52 | 32.85822 | 118.95622 | 35969 ft | 489 kts | 149° |
| 2026-05-05 13:52 | 32.83018 | 118.97920 | 35696 ft | 489 kts | 149° |
| 2026-05-05 13:52 | 32.80215 | 119.00218 | 35430 ft | 489 kts | 148° |
| 2026-05-05 13:53 | 32.77462 | 119.02484 | 35196 ft | 488 kts | 148° |
| 2026-05-05 13:53 | 32.74674 | 119.04786 | 34989 ft | 488 kts | 148° |
| 2026-05-05 13:53 | 32.71867 | 119.07107 | 34772 ft | 488 kts | 148° |
| 2026-05-05 13:53 | 32.69096 | 119.09401 | 34548 ft | 488 kts | 148° |
| 2026-05-05 13:54 | 32.66329 | 119.11691 | 34341 ft | 487 kts | 148° |
| 2026-05-05 13:54 | 32.63539 | 119.13998 | 34100 ft | 488 kts | 148° |
| 2026-05-05 13:54 | 32.60752 | 119.16303 | 33843 ft | 489 kts | 148° |
| 2026-05-05 13:54 | 32.57950 | 119.18617 | 33586 ft | 488 kts | 148° |
| 2026-05-05 13:55 | 32.55168 | 119.20914 | 33316 ft | 488 kts | 148° |
| 2026-05-05 13:55 | 32.52386 | 119.23207 | 33048 ft | 487 kts | 148° |
| 2026-05-05 13:55 | 32.49630 | 119.25479 | 32779 ft | 487 kts | 148° |
| 2026-05-05 13:55 | 32.46852 | 119.27769 | 32510 ft | 486 kts | 148° |
| 2026-05-05 13:56 | 32.44082 | 119.30049 | 32246 ft | 486 kts | 148° |
| 2026-05-05 13:56 | 32.41305 | 119.32333 | 31966 ft | 485 kts | 148° |
| 2026-05-05 13:56 | 32.38549 | 119.34600 | 31665 ft | 485 kts | 147° |
| 2026-05-05 13:56 | 32.35760 | 119.36890 | 31381 ft | 485 kts | 147° |
| 2026-05-05 13:57 | 32.32987 | 119.39168 | 31078 ft | 485 kts | 147° |
| 2026-05-05 13:57 | 32.30226 | 119.41433 | 30785 ft | 482 kts | 147° |
| 2026-05-05 13:57 | 32.27505 | 119.43665 | 30485 ft | 480 kts | 147° |
| 2026-05-05 13:57 | 32.24773 | 119.45907 | 30190 ft | 477 kts | 147° |
| 2026-05-05 13:58 | 32.22035 | 119.48151 | 29879 ft | 474 kts | 147° |
| 2026-05-05 13:58 | 32.19349 | 119.50352 | 29544 ft | 471 kts | 147° |
| 2026-05-05 13:58 | 32.16653 | 119.52562 | 29209 ft | 468 kts | 147° |
| 2026-05-05 13:58 | 32.14018 | 119.54721 | 28874 ft | 466 kts | 147° |
| 2026-05-05 13:59 | 32.08721 | 119.59062 | 28210 ft | 461 kts | 147° |
| 2026-05-05 13:59 | 32.06071 | 119.61230 | 27870 ft | 458 kts | 147° |
| 2026-05-05 14:00 | 32.00882 | 119.65512 | 27199 ft | 454 kts | 145° |
| 2026-05-05 14:00 | 31.98417 | 119.67802 | 26869 ft | 453 kts | 141° |
| 2026-05-05 14:00 | 31.96033 | 119.70293 | 26526 ft | 451 kts | 138° |
| 2026-05-05 14:00 | 31.93823 | 119.72886 | 26196 ft | 450 kts | 134° |
| 2026-05-05 14:01 | 31.91736 | 119.75632 | 25860 ft | 449 kts | 131° |
| 2026-05-05 14:01 | 31.89782 | 119.78515 | 25528 ft | 447 kts | 128° |
| 2026-05-05 14:01 | 31.87985 | 119.81476 | 25198 ft | 445 kts | 125° |
| 2026-05-05 14:01 | 31.86265 | 119.84463 | 24869 ft | 443 kts | 124° |
| 2026-05-05 14:02 | 31.84536 | 119.87487 | 24531 ft | 441 kts | 124° |
| 2026-05-05 14:02 | 31.82850 | 119.90431 | 24197 ft | 438 kts | 124° |
| 2026-05-05 14:02 | 31.81160 | 119.93378 | 23857 ft | 435 kts | 124° |
| 2026-05-05 14:02 | 31.79456 | 119.96343 | 23517 ft | 433 kts | 124° |
| 2026-05-05 14:03 | 31.77789 | 119.99240 | 23182 ft | 430 kts | 124° |
| 2026-05-05 14:03 | 31.76108 | 120.02158 | 22838 ft | 428 kts | 124° |
| 2026-05-05 14:03 | 31.74445 | 120.05045 | 22495 ft | 426 kts | 124° |
| 2026-05-05 14:03 | 31.72807 | 120.07886 | 22161 ft | 425 kts | 124° |
| 2026-05-05 14:04 | 31.71140 | 120.10777 | 21817 ft | 423 kts | 124° |
| 2026-05-05 14:04 | 31.69500 | 120.13617 | 21479 ft | 421 kts | 124° |
| 2026-05-05 14:04 | 31.67873 | 120.16435 | 21144 ft | 419 kts | 124° |
| 2026-05-05 14:04 | 31.66231 | 120.19282 | 20804 ft | 417 kts | 124° |
| 2026-05-05 14:05 | 31.64617 | 120.22076 | 20468 ft | 415 kts | 125° |
| 2026-05-05 14:05 | 31.62993 | 120.24876 | 20132 ft | 413 kts | 125° |
| 2026-05-05 14:05 | 31.61387 | 120.27638 | 19814 ft | 411 kts | 125° |
| 2026-05-05 14:05 | 31.59851 | 120.30476 | 19597 ft | 411 kts | 120° |
| 2026-05-05 14:06 | 31.58542 | 120.33421 | 19421 ft | 410 kts | 115° |
| 2026-05-05 14:06 | 31.57464 | 120.36518 | 19243 ft | 410 kts | 110° |
| 2026-05-05 14:06 | 31.56533 | 120.39645 | 19066 ft | 409 kts | 109° |
| 2026-05-05 14:06 | 31.55624 | 120.42796 | 18886 ft | 408 kts | 109° |
| 2026-05-05 14:07 | 31.54715 | 120.45944 | 18709 ft | 407 kts | 109° |
| 2026-05-05 14:07 | 31.53802 | 120.49082 | 18530 ft | 406 kts | 109° |
| 2026-05-05 14:07 | 31.52887 | 120.52206 | 18350 ft | 406 kts | 109° |
| 2026-05-05 14:07 | 31.51967 | 120.55333 | 18174 ft | 404 kts | 109° |
| 2026-05-05 14:08 | 31.51060 | 120.58411 | 18002 ft | 403 kts | 109° |
| 2026-05-05 14:08 | 31.50141 | 120.61525 | 17797 ft | 402 kts | 109° |
| 2026-05-05 14:08 | 31.49234 | 120.64595 | 17603 ft | 401 kts | 109° |
| 2026-05-05 14:08 | 31.48327 | 120.67674 | 17403 ft | 399 kts | 109° |
| 2026-05-05 14:09 | 31.47430 | 120.70726 | 17205 ft | 397 kts | 110° |
| 2026-05-05 14:09 | 31.46528 | 120.73778 | 17007 ft | 397 kts | 110° |
| 2026-05-05 14:09 | 31.45628 | 120.76807 | 16809 ft | 396 kts | 110° |
| 2026-05-05 14:09 | 31.44719 | 120.79843 | 16609 ft | 394 kts | 110° |
| 2026-05-05 14:10 | 31.43777 | 120.82887 | 16412 ft | 394 kts | 110° |
| 2026-05-05 14:10 | 31.42841 | 120.85885 | 16216 ft | 393 kts | 110° |
| 2026-05-05 14:10 | 31.41908 | 120.88879 | 16017 ft | 391 kts | 110° |
| 2026-05-05 14:10 | 31.40978 | 120.91863 | 15820 ft | 390 kts | 110° |
| 2026-05-05 14:11 | 31.40057 | 120.94819 | 15673 ft | 390 kts | 110° |
| 2026-05-05 14:11 | 31.39139 | 120.97803 | 15517 ft | 389 kts | 110° |
| 2026-05-05 14:11 | 31.38236 | 121.00774 | 15214 ft | 387 kts | 110° |
| 2026-05-05 14:11 | 31.37340 | 121.03733 | 14853 ft | 385 kts | 110° |
| 2026-05-05 14:12 | 31.36458 | 121.06639 | 14497 ft | 382 kts | 110° |
| 2026-05-05 14:12 | 31.35563 | 121.09579 | 14109 ft | 380 kts | 110° |
| 2026-05-05 14:12 | 31.34690 | 121.12449 | 13739 ft | 378 kts | 109° |
| 2026-05-05 14:12 | 31.33813 | 121.15355 | 13363 ft | 376 kts | 109° |
| 2026-05-05 14:13 | 31.32951 | 121.18224 | 13006 ft | 370 kts | 109° |
| 2026-05-05 14:13 | 31.32109 | 121.21034 | 12649 ft | 364 kts | 109° |
| 2026-05-05 14:13 | 31.31282 | 121.23800 | 12254 ft | 359 kts | 109° |
| 2026-05-05 14:13 | 31.30466 | 121.26522 | 11868 ft | 353 kts | 109° |
| 2026-05-05 14:14 | 31.29652 | 121.29230 | 11484 ft | 348 kts | 109° |
| 2026-05-05 14:14 | 31.28854 | 121.31880 | 11122 ft | 343 kts | 109° |
| 2026-05-05 14:14 | 31.28069 | 121.34476 | 10875 ft | 335 kts | 109° |
| 2026-05-05 14:14 | 31.27306 | 121.36983 | 10633 ft | 327 kts | 109° |
| 2026-05-05 14:15 | 31.26554 | 121.39462 | 10393 ft | 320 kts | 109° |
| 2026-05-05 14:15 | 31.25819 | 121.41890 | 10186 ft | 311 kts | 109° |
| 2026-05-05 14:15 | 31.25103 | 121.44254 | 10062 ft | 301 kts | 109° |
| 2026-05-05 14:15 | 31.24413 | 121.46529 | 9937 ft | 291 kts | 109° |
| 2026-05-05 14:16 | 31.23747 | 121.48727 | 9808 ft | 282 kts | 109° |
| 2026-05-05 14:16 | 31.23107 | 121.50832 | 9687 ft | 273 kts | 109° |
| 2026-05-05 14:16 | 31.22739 | 121.52997 | 9380 ft | 272 kts | 87° |
| 2026-05-05 14:16 | 31.23096 | 121.55125 | 9146 ft | 268 kts | 72° |
| 2026-05-05 14:17 | 31.23685 | 121.57196 | 8896 ft | 265 kts | 70° |
| 2026-05-05 14:17 | 31.24276 | 121.59203 | 8650 ft | 262 kts | 68° |
| 2026-05-05 14:17 | 31.25217 | 121.60970 | 8368 ft | 257 kts | 38° |
| 2026-05-05 14:17 | 31.26787 | 121.61849 | 8118 ft | 251 kts | 7° |
| 2026-05-05 14:18 | 31.28500 | 121.61685 | 7873 ft | 246 kts | 342° |
| 2026-05-05 14:18 | 31.30117 | 121.61040 | 7631 ft | 244 kts | 340° |
| 2026-05-05 14:18 | 31.31727 | 121.60381 | 7387 ft | 242 kts | 340° |
| 2026-05-05 14:18 | 31.33307 | 121.59752 | 7143 ft | 241 kts | 341° |
| 2026-05-05 14:19 | 31.34883 | 121.59138 | 6983 ft | 235 kts | 341° |
| 2026-05-05 14:19 | 31.36421 | 121.58546 | 6864 ft | 231 kts | 341° |
| 2026-05-05 14:19 | 31.37967 | 121.58003 | 6604 ft | 230 kts | 352° |
| 2026-05-05 14:19 | 31.39499 | 121.58298 | 6371 ft | 227 kts | 31° |
| 2026-05-05 14:20 | 31.40537 | 121.59640 | 6227 ft | 222 kts | 67° |
| 2026-05-05 14:20 | 31.40913 | 121.61362 | 6072 ft | 216 kts | 78° |
| 2026-05-05 14:20 | 31.41192 | 121.63051 | 5963 ft | 211 kts | 78° |
| 2026-05-05 14:20 | 31.41478 | 121.64721 | 5856 ft | 205 kts | 78° |
| 2026-05-05 14:21 | 31.41764 | 121.66335 | 5740 ft | 200 kts | 80° |
| 2026-05-05 14:21 | 31.41682 | 121.67909 | 5489 ft | 199 kts | 120° |
| 2026-05-05 14:21 | 31.40681 | 121.68937 | 5249 ft | 196 kts | 161° |
| 2026-05-05 14:21 | 31.39342 | 121.69396 | 4826 ft | 205 kts | 165° |
| 2026-05-05 14:22 | 31.37962 | 121.69854 | 4496 ft | 209 kts | 164° |
| 2026-05-05 14:22 | 31.36563 | 121.70342 | 4235 ft | 205 kts | 163° |
| 2026-05-05 14:22 | 31.35213 | 121.70837 | 3954 ft | 202 kts | 162° |
| 2026-05-05 14:22 | 31.33883 | 121.71339 | 3689 ft | 198 kts | 162° |
| 2026-05-05 14:23 | 31.32595 | 121.71832 | 3421 ft | 194 kts | 162° |
| 2026-05-05 14:23 | 31.31323 | 121.72321 | 3166 ft | 190 kts | 162° |
| 2026-05-05 14:23 | 31.30085 | 121.72796 | 2923 ft | 186 kts | 162° |
| 2026-05-05 14:23 | 31.28859 | 121.73264 | 2669 ft | 181 kts | 162° |
| 2026-05-05 14:24 | 31.27688 | 121.73712 | 2436 ft | 174 kts | 163° |
| 2026-05-05 14:24 | 31.26569 | 121.74138 | 2218 ft | 163 kts | 162° |
| 2026-05-05 14:24 | 31.25527 | 121.74533 | 2011 ft | 153 kts | 162° |
| 2026-05-05 14:24 | 31.24538 | 121.74909 | 1819 ft | 146 kts | 163° |
| 2026-05-05 14:25 | 31.23599 | 121.75264 | 1640 ft | 137 kts | 162° |
| 2026-05-05 14:25 | 31.22690 | 121.75610 | 1472 ft | 136 kts | 163° |
| 2026-05-05 14:25 | 31.21796 | 121.75951 | 1314 ft | 135 kts | 164° |
| 2026-05-05 14:25 | 31.20899 | 121.76288 | 1143 ft | 135 kts | 162° |
| 2026-05-05 14:26 | 31.20011 | 121.76633 | 968 ft | 134 kts | 162° |
| 2026-05-05 14:26 | 31.19125 | 121.76975 | 772 ft | 134 kts | 165° |
| 2026-05-05 14:26 | 31.18226 | 121.77298 | 584 ft | 134 kts | 166° |
| 2026-05-05 14:26 | 31.17344 | 121.77629 | 424 ft | 133 kts | 163° |
| 2026-05-05 14:27 | 31.16461 | 121.77967 | 267 ft | 132 kts | 163° |
| 2026-05-05 14:27 | 31.15594 | 121.78302 | 88 ft | 131 kts | 166° |
| 2026-05-05 14:27 | 31.14740 | 121.78622 | 33 ft | 124 kts | 163° |
| 2026-05-05 14:27 | 31.13995 | 121.78888 | 26 ft | 90 kts | 159° |
| 2026-05-05 14:28 | 31.13577 | 121.79067 | 26 ft | 37 kts | 144° |
| 2026-05-05 14:28 | 31.13486 | 121.79172 | 26 ft | 10 kts | 133° |
| 2026-05-05 14:28 | 31.13429 | 121.79243 | 26 ft | 13 kts | 134° |
| 2026-05-05 14:28 | 31.13359 | 121.79326 | 26 ft | 13 kts | 139° |
| 2026-05-05 14:29 | 31.13318 | 121.79394 | 26 ft | 11 kts | 95° |
| 2026-05-05 14:29 | 31.13332 | 121.79481 | 26 ft | 2 kts | 73° |
| 2026-05-05 14:30 | 31.13334 | 121.79488 | 26 ft | 2 kts | 73° |
| 2026-05-05 14:30 | 31.13341 | 121.79516 | 26 ft | 4 kts | 73° |
| 2026-05-05 14:30 | 31.13354 | 121.79562 | 26 ft | 7 kts | 72° |
| 2026-05-05 14:30 | 31.13373 | 121.79629 | 26 ft | 9 kts | 72° |
| 2026-05-05 14:31 | 31.13396 | 121.79713 | 26 ft | 12 kts | 72° |
| 2026-05-05 14:31 | 31.13419 | 121.79792 | 26 ft | 6 kts | 64° |
| 2026-05-05 14:31 | 31.13467 | 121.79816 | 26 ft | 9 kts | 356° |
| 2026-05-05 14:31 | 31.13538 | 121.79796 | 26 ft | 11 kts | 342° |
| 2026-05-05 14:32 | 31.13624 | 121.79765 | 26 ft | 13 kts | 343° |
| 2026-05-05 14:32 | 31.13714 | 121.79730 | 26 ft | 13 kts | 341° |
| 2026-05-05 14:32 | 31.13803 | 121.79697 | 26 ft | 13 kts | 343° |
| 2026-05-05 14:32 | 31.13890 | 121.79664 | 26 ft | 12 kts | 341° |
| 2026-05-05 14:33 | 31.13975 | 121.79633 | 26 ft | 12 kts | 342° |
| 2026-05-05 14:33 | 31.14056 | 121.79601 | 26 ft | 12 kts | 342° |
| 2026-05-05 14:33 | 31.14136 | 121.79572 | 26 ft | 11 kts | 342° |
| 2026-05-05 14:33 | 31.14178 | 121.79572 | 26 ft | 2 kts | 54° |
| 2026-05-05 14:34 | 31.14170 | 121.79594 | 26 ft | 3 kts | 126° |
| 2026-05-05 14:34 | 31.14164 | 121.79604 | 26 ft | 0 kts | 121° |
| 2026-05-05 14:34 | 31.14157 | 121.79618 | 26 ft | 5 kts | 117° |
| 2026-05-05 14:34 | 31.14137 | 121.79688 | 26 ft | 9 kts | 98° |
| 2026-05-05 14:35 | 31.14144 | 121.79768 | 26 ft | 11 kts | 76° |
| 2026-05-05 14:35 | 31.14172 | 121.79874 | 26 ft | 16 kts | 72° |
| 2026-05-05 14:35 | 31.14213 | 121.80022 | 26 ft | 21 kts | 72° |
| 2026-05-05 14:35 | 31.14264 | 121.80205 | 26 ft | 26 kts | 72° |
| 2026-05-05 14:36 | 31.14322 | 121.80410 | 26 ft | 26 kts | 72° |
| 2026-05-05 14:36 | 31.14380 | 121.80617 | 26 ft | 26 kts | 72° |
| 2026-05-05 14:36 | 31.14436 | 121.80819 | 26 ft | 26 kts | 72° |
| 2026-05-05 14:36 | 31.14492 | 121.81020 | 26 ft | 25 kts | 72° |
| 2026-05-05 14:37 | 31.14526 | 121.81125 | 26 ft | 9 kts | 49° |
| 2026-05-05 14:37 | 31.14588 | 121.81134 | 26 ft | 9 kts | 346° |
| 2026-05-05 14:37 | 31.14650 | 121.81112 | 26 ft | 9 kts | 342° |
| 2026-05-05 14:37 | 31.14710 | 121.81089 | 26 ft | 9 kts | 342° |
| 2026-05-05 14:38 | 31.14781 | 121.81063 | 26 ft | 12 kts | 342° |
| 2026-05-05 14:38 | 31.14870 | 121.81029 | 26 ft | 13 kts | 342° |
| 2026-05-05 14:38 | 31.14961 | 121.80995 | 26 ft | 13 kts | 341° |
| 2026-05-05 14:38 | 31.15049 | 121.80962 | 26 ft | 12 kts | 341° |
| 2026-05-05 14:39 | 31.15102 | 121.80936 | 26 ft | 6 kts | 317° |
| 2026-05-05 14:39 | 31.15113 | 121.80893 | 26 ft | 5 kts | 258° |
| 2026-05-05 14:39 | 31.15100 | 121.80854 | 26 ft | 4 kts | 249° |
| 2026-05-05 14:39 | 31.15091 | 121.80827 | 26 ft | 0 kts | 251° |